<?xml version="1.0" encoding="UTF-8"?>
<gpx version="1.1" creator="https://www.youtrack.es" xsi:schemaLocation="http://www.topografix.com/GPX/1/1 http://www.topografix.com/GPX/1/1/gpx.xsd http://www.garmin.com/xmlschemas/GpxExtensions/v3 http://www.garmin.com/xmlschemas/GpxExtensionsv3.xsd http://www.garmin.com/xmlschemas/TrackPointExtension/v1 http://www.garmin.com/xmlschemas/TrackPointExtensionv1.xsd" xmlns:gpxtpx="http://www.garmin.com/xmlschemas/TrackPointExtension/v1" xmlns:gpxx="http://www.garmin.com/xmlschemas/GpxExtensions/v3" xmlns:xsi="http://www.w3.org/2001/XMLSchema-instance">
  <metadata>
    <author>
      <name>Sergio A.I.</name>
      <email id="xoro84" domain="gmail.com"/>
    </author>
    <link href="https://www.youtrack.es">
      <text>YouTrack.es</text>
    </link>
    <time>2026-05-08T09:04:25Z</time>
  </metadata>
  <trk>
    <src>https://www.youtrack.es</src>
    <link href="https://www.youtrack.es/ruta/30899-dos-aguas-1">
      <text>YouTrack.es</text>
    </link>
    <trkseg>
      <trkpt lat="39.2892240" lon="-0.7999110">
        <ele>359.5</ele>
        <time>2022-04-09T08:18:43Z</time>
      </trkpt>
      <trkpt lat="39.2899540" lon="-0.7994570">
        <ele>358.3</ele>
        <time>2022-04-09T08:19:14Z</time>
      </trkpt>
      <trkpt lat="39.2896870" lon="-0.7966160">
        <ele>358.2</ele>
        <time>2022-04-09T08:22:06Z</time>
      </trkpt>
      <trkpt lat="39.2893830" lon="-0.7967470">
        <ele>356.2</ele>
        <time>2022-04-09T08:22:11Z</time>
      </trkpt>
      <trkpt lat="39.2893120" lon="-0.7970970">
        <ele>353.7</ele>
        <time>2022-04-09T08:22:15Z</time>
      </trkpt>
      <trkpt lat="39.2895670" lon="-0.7987230">
        <ele>344.0</ele>
        <time>2022-04-09T08:22:29Z</time>
      </trkpt>
      <trkpt lat="39.2890100" lon="-0.7993670">
        <ele>338.7</ele>
        <time>2022-04-09T08:22:36Z</time>
      </trkpt>
      <trkpt lat="39.2887060" lon="-0.7993920">
        <ele>336.7</ele>
        <time>2022-04-09T08:22:39Z</time>
      </trkpt>
      <trkpt lat="39.2876140" lon="-0.7980610">
        <ele>326.9</ele>
        <time>2022-04-09T08:22:54Z</time>
      </trkpt>
      <trkpt lat="39.2873310" lon="-0.7980280">
        <ele>323.9</ele>
        <time>2022-04-09T08:22:57Z</time>
      </trkpt>
      <trkpt lat="39.2865740" lon="-0.7985450">
        <ele>317.7</ele>
        <time>2022-04-09T08:23:05Z</time>
      </trkpt>
      <trkpt lat="39.2864270" lon="-0.7995960">
        <ele>311.3</ele>
        <time>2022-04-09T08:23:13Z</time>
      </trkpt>
      <trkpt lat="39.2861790" lon="-0.8001920">
        <ele>307.7</ele>
        <time>2022-04-09T08:23:18Z</time>
      </trkpt>
      <trkpt lat="39.2859310" lon="-0.8004040">
        <ele>305.6</ele>
        <time>2022-04-09T08:23:21Z</time>
      </trkpt>
      <trkpt lat="39.2857120" lon="-0.8002400">
        <ele>303.5</ele>
        <time>2022-04-09T08:23:24Z</time>
      </trkpt>
      <trkpt lat="39.2858230" lon="-0.7992200">
        <ele>298.1</ele>
        <time>2022-04-09T08:23:32Z</time>
      </trkpt>
      <trkpt lat="39.2856550" lon="-0.7987570">
        <ele>294.7</ele>
        <time>2022-04-09T08:23:36Z</time>
      </trkpt>
      <trkpt lat="39.2853000" lon="-0.7987150">
        <ele>293.9</ele>
        <time>2022-04-09T08:23:40Z</time>
      </trkpt>
      <trkpt lat="39.2846770" lon="-0.7994330">
        <ele>294.6</ele>
        <time>2022-04-09T08:23:50Z</time>
      </trkpt>
      <trkpt lat="39.2843520" lon="-0.7995190">
        <ele>294.6</ele>
        <time>2022-04-09T08:23:55Z</time>
      </trkpt>
      <trkpt lat="39.2838780" lon="-0.7991620">
        <ele>296.4</ele>
        <time>2022-04-09T08:24:10Z</time>
      </trkpt>
      <trkpt lat="39.2835700" lon="-0.7984140">
        <ele>307.3</ele>
        <time>2022-04-09T08:25:29Z</time>
      </trkpt>
      <trkpt lat="39.2838940" lon="-0.7982830">
        <ele>312.3</ele>
        <time>2022-04-09T08:25:45Z</time>
      </trkpt>
      <trkpt lat="39.2845500" lon="-0.7983820">
        <ele>321.2</ele>
        <time>2022-04-09T08:26:13Z</time>
      </trkpt>
      <trkpt lat="39.2849540" lon="-0.7981200">
        <ele>328.6</ele>
        <time>2022-04-09T08:26:31Z</time>
      </trkpt>
      <trkpt lat="39.2844920" lon="-0.7980390">
        <ele>334.2</ele>
        <time>2022-04-09T08:26:53Z</time>
      </trkpt>
      <trkpt lat="39.2840320" lon="-0.7973770">
        <ele>341.7</ele>
        <time>2022-04-09T08:27:20Z</time>
      </trkpt>
      <trkpt lat="39.2836740" lon="-0.7973500">
        <ele>345.8</ele>
        <time>2022-04-09T08:27:34Z</time>
      </trkpt>
      <trkpt lat="39.2836100" lon="-0.7970790">
        <ele>347.9</ele>
        <time>2022-04-09T08:27:43Z</time>
      </trkpt>
      <trkpt lat="39.2843770" lon="-0.7969780">
        <ele>356.7</ele>
        <time>2022-04-09T08:28:15Z</time>
      </trkpt>
      <trkpt lat="39.2854710" lon="-0.7964170">
        <ele>354.7</ele>
        <time>2022-04-09T08:28:46Z</time>
      </trkpt>
      <trkpt lat="39.2864420" lon="-0.7936750">
        <ele>350.5</ele>
        <time>2022-04-09T08:29:25Z</time>
      </trkpt>
      <trkpt lat="39.2864510" lon="-0.7928830">
        <ele>349.9</ele>
        <time>2022-04-09T08:29:40Z</time>
      </trkpt>
      <trkpt lat="39.2867450" lon="-0.7929770">
        <ele>349.2</ele>
        <time>2022-04-09T08:29:49Z</time>
      </trkpt>
      <trkpt lat="39.2869620" lon="-0.7927960">
        <ele>350.6</ele>
        <time>2022-04-09T08:29:55Z</time>
      </trkpt>
      <trkpt lat="39.2871760" lon="-0.7914650">
        <ele>359.3</ele>
        <time>2022-04-09T08:30:31Z</time>
      </trkpt>
      <trkpt lat="39.2871320" lon="-0.7908260">
        <ele>363.9</ele>
        <time>2022-04-09T08:30:49Z</time>
      </trkpt>
      <trkpt lat="39.2875110" lon="-0.7905550">
        <ele>366.5</ele>
        <time>2022-04-09T08:31:07Z</time>
      </trkpt>
      <trkpt lat="39.2882060" lon="-0.7894570">
        <ele>373.7</ele>
        <time>2022-04-09T08:31:43Z</time>
      </trkpt>
      <trkpt lat="39.2880380" lon="-0.7882850">
        <ele>382.0</ele>
        <time>2022-04-09T08:32:17Z</time>
      </trkpt>
      <trkpt lat="39.2878030" lon="-0.7879070">
        <ele>384.6</ele>
        <time>2022-04-09T08:32:31Z</time>
      </trkpt>
      <trkpt lat="39.2875920" lon="-0.7869810">
        <ele>388.4</ele>
        <time>2022-04-09T08:32:58Z</time>
      </trkpt>
      <trkpt lat="39.2876880" lon="-0.7838730">
        <ele>402.4</ele>
        <time>2022-04-09T08:34:05Z</time>
      </trkpt>
      <trkpt lat="39.2872660" lon="-0.7833060">
        <ele>404.4</ele>
        <time>2022-04-09T08:34:21Z</time>
      </trkpt>
      <trkpt lat="39.2871090" lon="-0.7825570">
        <ele>404.8</ele>
        <time>2022-04-09T08:34:36Z</time>
      </trkpt>
      <trkpt lat="39.2864010" lon="-0.7822630">
        <ele>404.1</ele>
        <time>2022-04-09T08:34:51Z</time>
      </trkpt>
      <trkpt lat="39.2867500" lon="-0.7816340">
        <ele>402.6</ele>
        <time>2022-04-09T08:35:06Z</time>
      </trkpt>
      <trkpt lat="39.2866970" lon="-0.7809890">
        <ele>404.6</ele>
        <time>2022-04-09T08:35:15Z</time>
      </trkpt>
      <trkpt lat="39.2872250" lon="-0.7805980">
        <ele>409.7</ele>
        <time>2022-04-09T08:35:29Z</time>
      </trkpt>
      <trkpt lat="39.2871730" lon="-0.7800860">
        <ele>413.2</ele>
        <time>2022-04-09T08:35:42Z</time>
      </trkpt>
      <trkpt lat="39.2874140" lon="-0.7788380">
        <ele>422.0</ele>
        <time>2022-04-09T08:36:20Z</time>
      </trkpt>
      <trkpt lat="39.2872510" lon="-0.7775720">
        <ele>425.3</ele>
        <time>2022-04-09T08:36:50Z</time>
      </trkpt>
      <trkpt lat="39.2873350" lon="-0.7766670">
        <ele>425.8</ele>
        <time>2022-04-09T08:37:07Z</time>
      </trkpt>
      <trkpt lat="39.2870130" lon="-0.7762240">
        <ele>426.1</ele>
        <time>2022-04-09T08:37:17Z</time>
      </trkpt>
      <trkpt lat="39.2865510" lon="-0.7760830">
        <ele>426.6</ele>
        <time>2022-04-09T08:37:31Z</time>
      </trkpt>
      <trkpt lat="39.2864720" lon="-0.7757970">
        <ele>428.0</ele>
        <time>2022-04-09T08:37:39Z</time>
      </trkpt>
      <trkpt lat="39.2869760" lon="-0.7752950">
        <ele>432.1</ele>
        <time>2022-04-09T08:37:59Z</time>
      </trkpt>
      <trkpt lat="39.2876080" lon="-0.7750670">
        <ele>436.3</ele>
        <time>2022-04-09T08:38:22Z</time>
      </trkpt>
      <trkpt lat="39.2877170" lon="-0.7743330">
        <ele>439.6</ele>
        <time>2022-04-09T08:38:41Z</time>
      </trkpt>
      <trkpt lat="39.2874150" lon="-0.7737360">
        <ele>443.9</ele>
        <time>2022-04-09T08:39:02Z</time>
      </trkpt>
      <trkpt lat="39.2880080" lon="-0.7732470">
        <ele>449.0</ele>
        <time>2022-04-09T08:39:28Z</time>
      </trkpt>
      <trkpt lat="39.2882110" lon="-0.7728370">
        <ele>450.3</ele>
        <time>2022-04-09T08:39:41Z</time>
      </trkpt>
      <trkpt lat="39.2879600" lon="-0.7716660">
        <ele>453.7</ele>
        <time>2022-04-09T08:40:04Z</time>
      </trkpt>
      <trkpt lat="39.2876450" lon="-0.7713650">
        <ele>455.7</ele>
        <time>2022-04-09T08:40:20Z</time>
      </trkpt>
      <trkpt lat="39.2878670" lon="-0.7709260">
        <ele>456.5</ele>
        <time>2022-04-09T08:40:33Z</time>
      </trkpt>
      <trkpt lat="39.2877860" lon="-0.7704040">
        <ele>458.3</ele>
        <time>2022-04-09T08:40:44Z</time>
      </trkpt>
      <trkpt lat="39.2871500" lon="-0.7695870">
        <ele>465.2</ele>
        <time>2022-04-09T08:41:14Z</time>
      </trkpt>
      <trkpt lat="39.2872570" lon="-0.7692540">
        <ele>468.0</ele>
        <time>2022-04-09T08:41:23Z</time>
      </trkpt>
      <trkpt lat="39.2875700" lon="-0.7690680">
        <ele>472.6</ele>
        <time>2022-04-09T08:41:37Z</time>
      </trkpt>
      <trkpt lat="39.2877520" lon="-0.7685570">
        <ele>477.2</ele>
        <time>2022-04-09T08:41:55Z</time>
      </trkpt>
      <trkpt lat="39.2878470" lon="-0.7655870">
        <ele>490.2</ele>
        <time>2022-04-09T08:43:11Z</time>
      </trkpt>
      <trkpt lat="39.2875400" lon="-0.7641760">
        <ele>494.1</ele>
        <time>2022-04-09T08:43:47Z</time>
      </trkpt>
      <trkpt lat="39.2869160" lon="-0.7632980">
        <ele>499.9</ele>
        <time>2022-04-09T08:44:12Z</time>
      </trkpt>
      <trkpt lat="39.2868300" lon="-0.7619250">
        <ele>509.4</ele>
        <time>2022-04-09T08:44:56Z</time>
      </trkpt>
      <trkpt lat="39.2869750" lon="-0.7618180">
        <ele>510.6</ele>
        <time>2022-04-09T08:45:05Z</time>
      </trkpt>
      <trkpt lat="39.2873980" lon="-0.7622860">
        <ele>515.7</ele>
        <time>2022-04-09T08:45:27Z</time>
      </trkpt>
      <trkpt lat="39.2876210" lon="-0.7619600">
        <ele>518.9</ele>
        <time>2022-04-09T08:45:41Z</time>
      </trkpt>
      <trkpt lat="39.2878360" lon="-0.7611070">
        <ele>526.8</ele>
        <time>2022-04-09T08:46:14Z</time>
      </trkpt>
      <trkpt lat="39.2873490" lon="-0.7611600">
        <ele>527.9</ele>
        <time>2022-04-09T08:46:44Z</time>
      </trkpt>
      <trkpt lat="39.2871480" lon="-0.7604970">
        <ele>535.0</ele>
        <time>2022-04-09T08:47:12Z</time>
      </trkpt>
      <trkpt lat="39.2864570" lon="-0.7599180">
        <ele>550.2</ele>
        <time>2022-04-09T08:47:49Z</time>
      </trkpt>
      <trkpt lat="39.2858830" lon="-0.7586070">
        <ele>551.3</ele>
        <time>2022-04-09T08:48:34Z</time>
      </trkpt>
      <trkpt lat="39.2856500" lon="-0.7585700">
        <ele>552.8</ele>
        <time>2022-04-09T08:48:44Z</time>
      </trkpt>
      <trkpt lat="39.2853820" lon="-0.7588130">
        <ele>559.0</ele>
        <time>2022-04-09T08:48:57Z</time>
      </trkpt>
      <trkpt lat="39.2847500" lon="-0.7586850">
        <ele>570.2</ele>
        <time>2022-04-09T08:49:25Z</time>
      </trkpt>
      <trkpt lat="39.2846220" lon="-0.7583110">
        <ele>567.3</ele>
        <time>2022-04-09T08:49:46Z</time>
      </trkpt>
      <trkpt lat="39.2849560" lon="-0.7584350">
        <ele>561.1</ele>
        <time>2022-04-09T08:50:19Z</time>
      </trkpt>
      <trkpt lat="39.2855190" lon="-0.7577380">
        <ele>547.8</ele>
        <time>2022-04-09T08:50:34Z</time>
      </trkpt>
      <trkpt lat="39.2857680" lon="-0.7569330">
        <ele>543.2</ele>
        <time>2022-04-09T08:50:45Z</time>
      </trkpt>
      <trkpt lat="39.2855530" lon="-0.7540480">
        <ele>553.6</ele>
        <time>2022-04-09T08:51:55Z</time>
      </trkpt>
      <trkpt lat="39.2857870" lon="-0.7537610">
        <ele>543.1</ele>
        <time>2022-04-09T08:52:05Z</time>
      </trkpt>
      <trkpt lat="39.2854670" lon="-0.7514220">
        <ele>542.0</ele>
        <time>2022-04-09T08:53:23Z</time>
      </trkpt>
      <trkpt lat="39.2857210" lon="-0.7483970">
        <ele>542.0</ele>
        <time>2022-04-09T08:54:33Z</time>
      </trkpt>
      <trkpt lat="39.2854540" lon="-0.7463840">
        <ele>543.0</ele>
        <time>2022-04-09T08:55:32Z</time>
      </trkpt>
      <trkpt lat="39.2850830" lon="-0.7456810">
        <ele>548.8</ele>
        <time>2022-04-09T08:56:09Z</time>
      </trkpt>
      <trkpt lat="39.2853310" lon="-0.7455470">
        <ele>543.6</ele>
        <time>2022-04-09T08:56:23Z</time>
      </trkpt>
      <trkpt lat="39.2854710" lon="-0.7448560">
        <ele>550.3</ele>
        <time>2022-04-09T08:56:53Z</time>
      </trkpt>
      <trkpt lat="39.2858320" lon="-0.7444910">
        <ele>553.8</ele>
        <time>2022-04-09T08:58:21Z</time>
      </trkpt>
      <trkpt lat="39.2862730" lon="-0.7432030">
        <ele>565.7</ele>
        <time>2022-04-09T08:59:19Z</time>
      </trkpt>
      <trkpt lat="39.2864500" lon="-0.7414480">
        <ele>569.8</ele>
        <time>2022-04-09T09:00:21Z</time>
      </trkpt>
      <trkpt lat="39.2863130" lon="-0.7402560">
        <ele>578.0</ele>
        <time>2022-04-09T09:00:51Z</time>
      </trkpt>
      <trkpt lat="39.2865650" lon="-0.7390800">
        <ele>573.6</ele>
        <time>2022-04-09T09:01:14Z</time>
      </trkpt>
      <trkpt lat="39.2864440" lon="-0.7381090">
        <ele>580.5</ele>
        <time>2022-04-09T09:01:39Z</time>
      </trkpt>
      <trkpt lat="39.2858020" lon="-0.7359760">
        <ele>602.5</ele>
        <time>2022-04-09T09:02:51Z</time>
      </trkpt>
      <trkpt lat="39.2859590" lon="-0.7343110">
        <ele>613.2</ele>
        <time>2022-04-09T09:03:45Z</time>
      </trkpt>
      <trkpt lat="39.2853710" lon="-0.7300980">
        <ele>645.2</ele>
        <time>2022-04-09T09:05:38Z</time>
      </trkpt>
      <trkpt lat="39.2852050" lon="-0.7264980">
        <ele>668.2</ele>
        <time>2022-04-09T09:07:13Z</time>
      </trkpt>
      <trkpt lat="39.2848030" lon="-0.7246260">
        <ele>680.0</ele>
        <time>2022-04-09T09:08:00Z</time>
      </trkpt>
      <trkpt lat="39.2846530" lon="-0.7245290">
        <ele>682.5</ele>
        <time>2022-04-09T09:08:07Z</time>
      </trkpt>
      <trkpt lat="39.2844170" lon="-0.7247630">
        <ele>684.8</ele>
        <time>2022-04-09T09:08:17Z</time>
      </trkpt>
      <trkpt lat="39.2836410" lon="-0.7281510">
        <ele>688.9</ele>
        <time>2022-04-09T09:09:39Z</time>
      </trkpt>
      <trkpt lat="39.2833050" lon="-0.7281800">
        <ele>687.6</ele>
        <time>2022-04-09T09:09:45Z</time>
      </trkpt>
      <trkpt lat="39.2827930" lon="-0.7274290">
        <ele>689.8</ele>
        <time>2022-04-09T09:10:00Z</time>
      </trkpt>
      <trkpt lat="39.2824350" lon="-0.7273270">
        <ele>690.2</ele>
        <time>2022-04-09T09:10:08Z</time>
      </trkpt>
      <trkpt lat="39.2822820" lon="-0.7274780">
        <ele>690.5</ele>
        <time>2022-04-09T09:10:12Z</time>
      </trkpt>
      <trkpt lat="39.2814640" lon="-0.7323000">
        <ele>681.2</ele>
        <time>2022-04-09T09:11:19Z</time>
      </trkpt>
      <trkpt lat="39.2812420" lon="-0.7324320">
        <ele>681.7</ele>
        <time>2022-04-09T09:11:25Z</time>
      </trkpt>
      <trkpt lat="39.2804150" lon="-0.7307620">
        <ele>693.6</ele>
        <time>2022-04-09T09:12:06Z</time>
      </trkpt>
      <trkpt lat="39.2796970" lon="-0.7309920">
        <ele>694.2</ele>
        <time>2022-04-09T09:12:25Z</time>
      </trkpt>
      <trkpt lat="39.2793860" lon="-0.7299680">
        <ele>693.1</ele>
        <time>2022-04-09T09:12:43Z</time>
      </trkpt>
      <trkpt lat="39.2791220" lon="-0.7297760">
        <ele>691.7</ele>
        <time>2022-04-09T09:12:50Z</time>
      </trkpt>
      <trkpt lat="39.2791320" lon="-0.7284500">
        <ele>692.2</ele>
        <time>2022-04-09T09:13:12Z</time>
      </trkpt>
      <trkpt lat="39.2788190" lon="-0.7270880">
        <ele>695.0</ele>
        <time>2022-04-09T09:13:34Z</time>
      </trkpt>
      <trkpt lat="39.2782140" lon="-0.7256530">
        <ele>697.2</ele>
        <time>2022-04-09T09:13:59Z</time>
      </trkpt>
      <trkpt lat="39.2776810" lon="-0.7214480">
        <ele>694.7</ele>
        <time>2022-04-09T09:14:47Z</time>
      </trkpt>
      <trkpt lat="39.2772710" lon="-0.7194120">
        <ele>704.6</ele>
        <time>2022-04-09T09:15:18Z</time>
      </trkpt>
      <trkpt lat="39.2770100" lon="-0.7189640">
        <ele>708.5</ele>
        <time>2022-04-09T09:15:31Z</time>
      </trkpt>
      <trkpt lat="39.2758590" lon="-0.7126140">
        <ele>700.2</ele>
        <time>2022-04-09T09:17:27Z</time>
      </trkpt>
      <trkpt lat="39.2753640" lon="-0.7125270">
        <ele>697.6</ele>
        <time>2022-04-09T09:17:40Z</time>
      </trkpt>
      <trkpt lat="39.2753160" lon="-0.7115020">
        <ele>698.2</ele>
        <time>2022-04-09T09:17:55Z</time>
      </trkpt>
      <trkpt lat="39.2749000" lon="-0.7094330">
        <ele>700.6</ele>
        <time>2022-04-09T09:18:26Z</time>
      </trkpt>
      <trkpt lat="39.2750850" lon="-0.7084820">
        <ele>701.1</ele>
        <time>2022-04-09T09:18:42Z</time>
      </trkpt>
      <trkpt lat="39.2748190" lon="-0.7074410">
        <ele>701.5</ele>
        <time>2022-04-09T09:18:57Z</time>
      </trkpt>
      <trkpt lat="39.2754610" lon="-0.7065690">
        <ele>698.0</ele>
        <time>2022-04-09T09:19:10Z</time>
      </trkpt>
      <trkpt lat="39.2758860" lon="-0.7064080">
        <ele>697.2</ele>
        <time>2022-04-09T09:19:18Z</time>
      </trkpt>
      <trkpt lat="39.2755690" lon="-0.7046210">
        <ele>688.7</ele>
        <time>2022-04-09T09:19:42Z</time>
      </trkpt>
      <trkpt lat="39.2762620" lon="-0.7033630">
        <ele>675.8</ele>
        <time>2022-04-09T09:20:06Z</time>
      </trkpt>
      <trkpt lat="39.2766580" lon="-0.7021800">
        <ele>669.7</ele>
        <time>2022-04-09T09:20:25Z</time>
      </trkpt>
      <trkpt lat="39.2765000" lon="-0.7015460">
        <ele>665.3</ele>
        <time>2022-04-09T09:20:36Z</time>
      </trkpt>
      <trkpt lat="39.2767080" lon="-0.7014570">
        <ele>663.2</ele>
        <time>2022-04-09T09:20:41Z</time>
      </trkpt>
      <trkpt lat="39.2770850" lon="-0.7016630">
        <ele>661.8</ele>
        <time>2022-04-09T09:20:48Z</time>
      </trkpt>
      <trkpt lat="39.2771790" lon="-0.7015580">
        <ele>661.4</ele>
        <time>2022-04-09T09:20:51Z</time>
      </trkpt>
      <trkpt lat="39.2764900" lon="-0.6991210">
        <ele>653.9</ele>
        <time>2022-04-09T09:21:26Z</time>
      </trkpt>
      <trkpt lat="39.2766220" lon="-0.6986500">
        <ele>651.8</ele>
        <time>2022-04-09T09:21:33Z</time>
      </trkpt>
      <trkpt lat="39.2769780" lon="-0.6982060">
        <ele>652.8</ele>
        <time>2022-04-09T09:21:50Z</time>
      </trkpt>
      <trkpt lat="39.2761430" lon="-0.6976110">
        <ele>629.1</ele>
        <time>2022-04-09T09:22:26Z</time>
      </trkpt>
      <trkpt lat="39.2757630" lon="-0.6976410">
        <ele>622.4</ele>
        <time>2022-04-09T09:22:37Z</time>
      </trkpt>
      <trkpt lat="39.2755650" lon="-0.6974190">
        <ele>617.8</ele>
        <time>2022-04-09T09:22:47Z</time>
      </trkpt>
      <trkpt lat="39.2754450" lon="-0.6966310">
        <ele>606.9</ele>
        <time>2022-04-09T09:23:08Z</time>
      </trkpt>
      <trkpt lat="39.2755600" lon="-0.6962300">
        <ele>603.3</ele>
        <time>2022-04-09T09:23:20Z</time>
      </trkpt>
      <trkpt lat="39.2752900" lon="-0.6956260">
        <ele>592.5</ele>
        <time>2022-04-09T09:23:34Z</time>
      </trkpt>
      <trkpt lat="39.2752490" lon="-0.6946750">
        <ele>579.9</ele>
        <time>2022-04-09T09:23:49Z</time>
      </trkpt>
      <trkpt lat="39.2749010" lon="-0.6936240">
        <ele>561.1</ele>
        <time>2022-04-09T09:24:45Z</time>
      </trkpt>
      <trkpt lat="39.2749650" lon="-0.6930410">
        <ele>563.7</ele>
        <time>2022-04-09T09:25:34Z</time>
      </trkpt>
      <trkpt lat="39.2747930" lon="-0.6926940">
        <ele>570.8</ele>
        <time>2022-04-09T09:25:52Z</time>
      </trkpt>
      <trkpt lat="39.2751870" lon="-0.6910660">
        <ele>593.3</ele>
        <time>2022-04-09T09:27:25Z</time>
      </trkpt>
      <trkpt lat="39.2751210" lon="-0.6899530">
        <ele>595.1</ele>
        <time>2022-04-09T09:28:26Z</time>
      </trkpt>
      <trkpt lat="39.2754580" lon="-0.6889550">
        <ele>591.3</ele>
        <time>2022-04-09T09:28:40Z</time>
      </trkpt>
      <trkpt lat="39.2754840" lon="-0.6874660">
        <ele>584.1</ele>
        <time>2022-04-09T09:28:56Z</time>
      </trkpt>
      <trkpt lat="39.2763080" lon="-0.6862090">
        <ele>566.4</ele>
        <time>2022-04-09T09:29:12Z</time>
      </trkpt>
      <trkpt lat="39.2765180" lon="-0.6862060">
        <ele>565.0</ele>
        <time>2022-04-09T09:29:20Z</time>
      </trkpt>
      <trkpt lat="39.2765970" lon="-0.6849570">
        <ele>551.6</ele>
        <time>2022-04-09T09:29:36Z</time>
      </trkpt>
      <trkpt lat="39.2764790" lon="-0.6847250">
        <ele>549.1</ele>
        <time>2022-04-09T09:29:40Z</time>
      </trkpt>
      <trkpt lat="39.2763560" lon="-0.6847520">
        <ele>547.9</ele>
        <time>2022-04-09T09:29:43Z</time>
      </trkpt>
      <trkpt lat="39.2757940" lon="-0.6858640">
        <ele>536.4</ele>
        <time>2022-04-09T09:30:00Z</time>
      </trkpt>
      <trkpt lat="39.2746600" lon="-0.6858210">
        <ele>519.6</ele>
        <time>2022-04-09T09:30:35Z</time>
      </trkpt>
      <trkpt lat="39.2744120" lon="-0.6856270">
        <ele>516.3</ele>
        <time>2022-04-09T09:30:44Z</time>
      </trkpt>
      <trkpt lat="39.2746420" lon="-0.6851220">
        <ele>508.8</ele>
        <time>2022-04-09T09:30:57Z</time>
      </trkpt>
      <trkpt lat="39.2741250" lon="-0.6846670">
        <ele>499.3</ele>
        <time>2022-04-09T09:31:15Z</time>
      </trkpt>
      <trkpt lat="39.2744300" lon="-0.6842780">
        <ele>491.4</ele>
        <time>2022-04-09T09:31:27Z</time>
      </trkpt>
      <trkpt lat="39.2748350" lon="-0.6832700">
        <ele>476.5</ele>
        <time>2022-04-09T09:31:50Z</time>
      </trkpt>
      <trkpt lat="39.2750220" lon="-0.6818280">
        <ele>474.5</ele>
        <time>2022-04-09T09:33:08Z</time>
      </trkpt>
      <trkpt lat="39.2749480" lon="-0.6810800">
        <ele>491.0</ele>
        <time>2022-04-09T09:34:21Z</time>
      </trkpt>
      <trkpt lat="39.2751040" lon="-0.6806720">
        <ele>497.4</ele>
        <time>2022-04-09T09:34:45Z</time>
      </trkpt>
      <trkpt lat="39.2749900" lon="-0.6794090">
        <ele>503.1</ele>
        <time>2022-04-09T09:35:29Z</time>
      </trkpt>
      <trkpt lat="39.2743090" lon="-0.6780060">
        <ele>487.0</ele>
        <time>2022-04-09T09:35:56Z</time>
      </trkpt>
      <trkpt lat="39.2742860" lon="-0.6769710">
        <ele>474.2</ele>
        <time>2022-04-09T09:36:12Z</time>
      </trkpt>
      <trkpt lat="39.2733360" lon="-0.6749840">
        <ele>442.4</ele>
        <time>2022-04-09T09:36:41Z</time>
      </trkpt>
      <trkpt lat="39.2729230" lon="-0.6737800">
        <ele>421.4</ele>
        <time>2022-04-09T09:36:59Z</time>
      </trkpt>
      <trkpt lat="39.2724100" lon="-0.6738770">
        <ele>411.6</ele>
        <time>2022-04-09T09:37:09Z</time>
      </trkpt>
      <trkpt lat="39.2720730" lon="-0.6736240">
        <ele>405.1</ele>
        <time>2022-04-09T09:37:58Z</time>
      </trkpt>
      <trkpt lat="39.2716720" lon="-0.6735880">
        <ele>401.9</ele>
        <time>2022-04-09T09:38:08Z</time>
      </trkpt>
      <trkpt lat="39.2717240" lon="-0.6730510">
        <ele>401.9</ele>
        <time>2022-04-09T09:42:30Z</time>
      </trkpt>
      <trkpt lat="39.2707530" lon="-0.6697890">
        <ele>405.1</ele>
        <time>2022-04-09T09:43:37Z</time>
      </trkpt>
      <trkpt lat="39.2700430" lon="-0.6692090">
        <ele>393.8</ele>
        <time>2022-04-09T09:43:49Z</time>
      </trkpt>
      <trkpt lat="39.2695920" lon="-0.6685290">
        <ele>382.8</ele>
        <time>2022-04-09T09:43:56Z</time>
      </trkpt>
      <trkpt lat="39.2690830" lon="-0.6672240">
        <ele>367.9</ele>
        <time>2022-04-09T09:44:07Z</time>
      </trkpt>
      <trkpt lat="39.2680500" lon="-0.6663440">
        <ele>352.0</ele>
        <time>2022-04-09T09:44:19Z</time>
      </trkpt>
      <trkpt lat="39.2666620" lon="-0.6645460">
        <ele>333.0</ele>
        <time>2022-04-09T09:44:38Z</time>
      </trkpt>
      <trkpt lat="39.2661330" lon="-0.6642350">
        <ele>327.3</ele>
        <time>2022-04-09T09:44:47Z</time>
      </trkpt>
      <trkpt lat="39.2661180" lon="-0.6607140">
        <ele>300.6</ele>
        <time>2022-04-09T09:45:14Z</time>
      </trkpt>
      <trkpt lat="39.2658710" lon="-0.6601090">
        <ele>295.4</ele>
        <time>2022-04-09T09:45:19Z</time>
      </trkpt>
      <trkpt lat="39.2653520" lon="-0.6595660">
        <ele>288.9</ele>
        <time>2022-04-09T09:45:27Z</time>
      </trkpt>
      <trkpt lat="39.2652820" lon="-0.6587990">
        <ele>283.0</ele>
        <time>2022-04-09T09:45:34Z</time>
      </trkpt>
      <trkpt lat="39.2648410" lon="-0.6577630">
        <ele>274.0</ele>
        <time>2022-04-09T09:46:04Z</time>
      </trkpt>
      <trkpt lat="39.2641640" lon="-0.6568830">
        <ele>278.1</ele>
        <time>2022-04-09T09:46:43Z</time>
      </trkpt>
      <trkpt lat="39.2640780" lon="-0.6559550">
        <ele>283.2</ele>
        <time>2022-04-09T09:47:18Z</time>
      </trkpt>
      <trkpt lat="39.2643030" lon="-0.6555090">
        <ele>284.2</ele>
        <time>2022-04-09T09:47:33Z</time>
      </trkpt>
      <trkpt lat="39.2644540" lon="-0.6544670">
        <ele>280.3</ele>
        <time>2022-04-09T09:47:52Z</time>
      </trkpt>
      <trkpt lat="39.2640480" lon="-0.6522180">
        <ele>273.4</ele>
        <time>2022-04-09T09:48:15Z</time>
      </trkpt>
      <trkpt lat="39.2633650" lon="-0.6513280">
        <ele>266.6</ele>
        <time>2022-04-09T09:48:30Z</time>
      </trkpt>
      <trkpt lat="39.2633500" lon="-0.6499390">
        <ele>257.7</ele>
        <time>2022-04-09T09:48:46Z</time>
      </trkpt>
      <trkpt lat="39.2630730" lon="-0.6493410">
        <ele>256.8</ele>
        <time>2022-04-09T09:48:54Z</time>
      </trkpt>
      <trkpt lat="39.2620600" lon="-0.6433070">
        <ele>229.3</ele>
        <time>2022-04-09T09:49:54Z</time>
      </trkpt>
      <trkpt lat="39.2611940" lon="-0.6407760">
        <ele>213.5</ele>
        <time>2022-04-09T09:50:29Z</time>
      </trkpt>
      <trkpt lat="39.2610260" lon="-0.6420670">
        <ele>215.6</ele>
        <time>2022-04-09T09:50:57Z</time>
      </trkpt>
      <trkpt lat="39.2613540" lon="-0.6432100">
        <ele>221.1</ele>
        <time>2022-04-09T09:51:24Z</time>
      </trkpt>
      <trkpt lat="39.2613720" lon="-0.6442230">
        <ele>229.3</ele>
        <time>2022-04-09T09:51:51Z</time>
      </trkpt>
      <trkpt lat="39.2600670" lon="-0.6449910">
        <ele>237.2</ele>
        <time>2022-04-09T09:52:46Z</time>
      </trkpt>
      <trkpt lat="39.2597430" lon="-0.6454980">
        <ele>239.3</ele>
        <time>2022-04-09T09:53:04Z</time>
      </trkpt>
      <trkpt lat="39.2585240" lon="-0.6466160">
        <ele>245.0</ele>
        <time>2022-04-09T09:53:51Z</time>
      </trkpt>
      <trkpt lat="39.2584000" lon="-0.6475240">
        <ele>248.4</ele>
        <time>2022-04-09T09:54:14Z</time>
      </trkpt>
      <trkpt lat="39.2577900" lon="-0.6487670">
        <ele>252.7</ele>
        <time>2022-04-09T09:54:54Z</time>
      </trkpt>
      <trkpt lat="39.2568710" lon="-0.6492360">
        <ele>253.9</ele>
        <time>2022-04-09T09:56:48Z</time>
      </trkpt>
      <trkpt lat="39.2560000" lon="-0.6500150">
        <ele>251.4</ele>
        <time>2022-04-09T09:57:18Z</time>
      </trkpt>
      <trkpt lat="39.2555660" lon="-0.6499120">
        <ele>244.3</ele>
        <time>2022-04-09T09:57:26Z</time>
      </trkpt>
      <trkpt lat="39.2551450" lon="-0.6501910">
        <ele>243.4</ele>
        <time>2022-04-09T09:57:33Z</time>
      </trkpt>
      <trkpt lat="39.2545300" lon="-0.6502430">
        <ele>243.4</ele>
        <time>2022-04-09T09:57:43Z</time>
      </trkpt>
      <trkpt lat="39.2539450" lon="-0.6497270">
        <ele>241.7</ele>
        <time>2022-04-09T09:58:02Z</time>
      </trkpt>
      <trkpt lat="39.2538180" lon="-0.6485140">
        <ele>233.9</ele>
        <time>2022-04-09T09:58:19Z</time>
      </trkpt>
      <trkpt lat="39.2536200" lon="-0.6481690">
        <ele>238.0</ele>
        <time>2022-04-09T09:58:26Z</time>
      </trkpt>
      <trkpt lat="39.2537320" lon="-0.6479840">
        <ele>241.3</ele>
        <time>2022-04-09T09:58:33Z</time>
      </trkpt>
      <trkpt lat="39.2528910" lon="-0.6471610">
        <ele>242.2</ele>
        <time>2022-04-09T09:59:16Z</time>
      </trkpt>
      <trkpt lat="39.2529330" lon="-0.6465550">
        <ele>247.7</ele>
        <time>2022-04-09T09:59:37Z</time>
      </trkpt>
      <trkpt lat="39.2532840" lon="-0.6458460">
        <ele>250.6</ele>
        <time>2022-04-09T10:00:04Z</time>
      </trkpt>
      <trkpt lat="39.2531750" lon="-0.6442380">
        <ele>249.3</ele>
        <time>2022-04-09T10:00:31Z</time>
      </trkpt>
      <trkpt lat="39.2533950" lon="-0.6422300">
        <ele>249.2</ele>
        <time>2022-04-09T10:00:59Z</time>
      </trkpt>
      <trkpt lat="39.2539780" lon="-0.6402300">
        <ele>255.3</ele>
        <time>2022-04-09T10:01:31Z</time>
      </trkpt>
      <trkpt lat="39.2528280" lon="-0.6406940">
        <ele>263.7</ele>
        <time>2022-04-09T10:02:08Z</time>
      </trkpt>
      <trkpt lat="39.2523490" lon="-0.6407320">
        <ele>262.2</ele>
        <time>2022-04-09T10:02:19Z</time>
      </trkpt>
      <trkpt lat="39.2516880" lon="-0.6413740">
        <ele>258.1</ele>
        <time>2022-04-09T10:02:32Z</time>
      </trkpt>
      <trkpt lat="39.2509030" lon="-0.6431770">
        <ele>254.3</ele>
        <time>2022-04-09T10:02:59Z</time>
      </trkpt>
      <trkpt lat="39.2499530" lon="-0.6442360">
        <ele>253.8</ele>
        <time>2022-04-09T10:03:24Z</time>
      </trkpt>
      <trkpt lat="39.2495530" lon="-0.6444850">
        <ele>254.0</ele>
        <time>2022-04-09T10:03:32Z</time>
      </trkpt>
      <trkpt lat="39.2485280" lon="-0.6445720">
        <ele>252.9</ele>
        <time>2022-04-09T10:03:51Z</time>
      </trkpt>
      <trkpt lat="39.2480980" lon="-0.6448880">
        <ele>250.2</ele>
        <time>2022-04-09T10:04:00Z</time>
      </trkpt>
      <trkpt lat="39.2477290" lon="-0.6447630">
        <ele>247.5</ele>
        <time>2022-04-09T10:04:06Z</time>
      </trkpt>
      <trkpt lat="39.2475170" lon="-0.6452490">
        <ele>243.4</ele>
        <time>2022-04-09T10:04:14Z</time>
      </trkpt>
      <trkpt lat="39.2472480" lon="-0.6453980">
        <ele>241.1</ele>
        <time>2022-04-09T10:04:19Z</time>
      </trkpt>
      <trkpt lat="39.2464730" lon="-0.6438400">
        <ele>245.2</ele>
        <time>2022-04-09T10:04:51Z</time>
      </trkpt>
      <trkpt lat="39.2462140" lon="-0.6435650">
        <ele>246.8</ele>
        <time>2022-04-09T10:05:00Z</time>
      </trkpt>
      <trkpt lat="39.2459020" lon="-0.6435530">
        <ele>249.4</ele>
        <time>2022-04-09T10:05:10Z</time>
      </trkpt>
      <trkpt lat="39.2445600" lon="-0.6424150">
        <ele>254.8</ele>
        <time>2022-04-09T10:05:56Z</time>
      </trkpt>
      <trkpt lat="39.2445000" lon="-0.6420080">
        <ele>254.8</ele>
        <time>2022-04-09T10:06:04Z</time>
      </trkpt>
      <trkpt lat="39.2437360" lon="-0.6412040">
        <ele>259.0</ele>
        <time>2022-04-09T10:06:27Z</time>
      </trkpt>
      <trkpt lat="39.2416450" lon="-0.6407900">
        <ele>257.9</ele>
        <time>2022-04-09T10:07:10Z</time>
      </trkpt>
      <trkpt lat="39.2409940" lon="-0.6403680">
        <ele>254.0</ele>
        <time>2022-04-09T10:07:21Z</time>
      </trkpt>
      <trkpt lat="39.2406330" lon="-0.6407650">
        <ele>251.4</ele>
        <time>2022-04-09T10:07:28Z</time>
      </trkpt>
      <trkpt lat="39.2399460" lon="-0.6405590">
        <ele>254.2</ele>
        <time>2022-04-09T10:07:41Z</time>
      </trkpt>
      <trkpt lat="39.2393690" lon="-0.6398420">
        <ele>258.4</ele>
        <time>2022-04-09T10:08:00Z</time>
      </trkpt>
      <trkpt lat="39.2370190" lon="-0.6387080">
        <ele>255.2</ele>
        <time>2022-04-09T10:08:45Z</time>
      </trkpt>
      <trkpt lat="39.2365230" lon="-0.6387510">
        <ele>255.1</ele>
        <time>2022-04-09T10:08:53Z</time>
      </trkpt>
      <trkpt lat="39.2359470" lon="-0.6383660">
        <ele>256.7</ele>
        <time>2022-04-09T10:09:05Z</time>
      </trkpt>
      <trkpt lat="39.2356620" lon="-0.6384390">
        <ele>258.7</ele>
        <time>2022-04-09T10:09:13Z</time>
      </trkpt>
      <trkpt lat="39.2350660" lon="-0.6377350">
        <ele>263.1</ele>
        <time>2022-04-09T10:09:35Z</time>
      </trkpt>
      <trkpt lat="39.2346610" lon="-0.6393350">
        <ele>277.3</ele>
        <time>2022-04-09T10:10:25Z</time>
      </trkpt>
      <trkpt lat="39.2346430" lon="-0.6401930">
        <ele>288.7</ele>
        <time>2022-04-09T10:10:58Z</time>
      </trkpt>
      <trkpt lat="39.2353990" lon="-0.6416900">
        <ele>309.0</ele>
        <time>2022-04-09T10:11:55Z</time>
      </trkpt>
      <trkpt lat="39.2360540" lon="-0.6421490">
        <ele>319.2</ele>
        <time>2022-04-09T10:12:26Z</time>
      </trkpt>
      <trkpt lat="39.2364820" lon="-0.6428540">
        <ele>329.3</ele>
        <time>2022-04-09T10:12:54Z</time>
      </trkpt>
      <trkpt lat="39.2369170" lon="-0.6431850">
        <ele>334.2</ele>
        <time>2022-04-09T10:13:15Z</time>
      </trkpt>
      <trkpt lat="39.2366450" lon="-0.6432870">
        <ele>334.7</ele>
        <time>2022-04-09T10:13:24Z</time>
      </trkpt>
      <trkpt lat="39.2358090" lon="-0.6429160">
        <ele>337.3</ele>
        <time>2022-04-09T10:13:48Z</time>
      </trkpt>
      <trkpt lat="39.2355960" lon="-0.6430410">
        <ele>337.6</ele>
        <time>2022-04-09T10:13:55Z</time>
      </trkpt>
      <trkpt lat="39.2353860" lon="-0.6434630">
        <ele>337.4</ele>
        <time>2022-04-09T10:14:05Z</time>
      </trkpt>
      <trkpt lat="39.2353720" lon="-0.6451650">
        <ele>347.3</ele>
        <time>2022-04-09T10:14:45Z</time>
      </trkpt>
      <trkpt lat="39.2352560" lon="-0.6453830">
        <ele>348.6</ele>
        <time>2022-04-09T10:14:51Z</time>
      </trkpt>
      <trkpt lat="39.2348860" lon="-0.6455280">
        <ele>349.4</ele>
        <time>2022-04-09T10:15:00Z</time>
      </trkpt>
      <trkpt lat="39.2347700" lon="-0.6460990">
        <ele>347.1</ele>
        <time>2022-04-09T10:15:09Z</time>
      </trkpt>
      <trkpt lat="39.2349340" lon="-0.6484720">
        <ele>330.7</ele>
        <time>2022-04-09T10:15:32Z</time>
      </trkpt>
      <trkpt lat="39.2355360" lon="-0.6498450">
        <ele>321.5</ele>
        <time>2022-04-09T10:15:46Z</time>
      </trkpt>
      <trkpt lat="39.2357910" lon="-0.6516620">
        <ele>317.6</ele>
        <time>2022-04-09T10:16:11Z</time>
      </trkpt>
      <trkpt lat="39.2368620" lon="-0.6524330">
        <ele>330.2</ele>
        <time>2022-04-09T10:16:51Z</time>
      </trkpt>
      <trkpt lat="39.2375580" lon="-0.6533090">
        <ele>337.2</ele>
        <time>2022-04-09T10:17:22Z</time>
      </trkpt>
      <trkpt lat="39.2380880" lon="-0.6546940">
        <ele>341.6</ele>
        <time>2022-04-09T10:20:09Z</time>
      </trkpt>
      <trkpt lat="39.2377610" lon="-0.6557600">
        <ele>353.7</ele>
        <time>2022-04-09T10:20:55Z</time>
      </trkpt>
      <trkpt lat="39.2386050" lon="-0.6562650">
        <ele>368.0</ele>
        <time>2022-04-09T10:21:51Z</time>
      </trkpt>
      <trkpt lat="39.2392880" lon="-0.6573880">
        <ele>389.5</ele>
        <time>2022-04-09T10:22:57Z</time>
      </trkpt>
      <trkpt lat="39.2406050" lon="-0.6590460">
        <ele>425.0</ele>
        <time>2022-04-09T10:24:56Z</time>
      </trkpt>
      <trkpt lat="39.2405350" lon="-0.6592270">
        <ele>428.0</ele>
        <time>2022-04-09T10:25:07Z</time>
      </trkpt>
      <trkpt lat="39.2400730" lon="-0.6592030">
        <ele>433.3</ele>
        <time>2022-04-09T10:25:30Z</time>
      </trkpt>
      <trkpt lat="39.2387940" lon="-0.6602020">
        <ele>453.2</ele>
        <time>2022-04-09T10:26:43Z</time>
      </trkpt>
      <trkpt lat="39.2383260" lon="-0.6599880">
        <ele>462.1</ele>
        <time>2022-04-09T10:27:09Z</time>
      </trkpt>
      <trkpt lat="39.2381820" lon="-0.6600680">
        <ele>464.1</ele>
        <time>2022-04-09T10:27:17Z</time>
      </trkpt>
      <trkpt lat="39.2379910" lon="-0.6611920">
        <ele>476.8</ele>
        <time>2022-04-09T10:28:05Z</time>
      </trkpt>
      <trkpt lat="39.2383540" lon="-0.6633240">
        <ele>493.7</ele>
        <time>2022-04-09T10:29:23Z</time>
      </trkpt>
      <trkpt lat="39.2383600" lon="-0.6648430">
        <ele>502.2</ele>
        <time>2022-04-09T10:30:08Z</time>
      </trkpt>
      <trkpt lat="39.2376120" lon="-0.6657160">
        <ele>513.3</ele>
        <time>2022-04-09T10:30:49Z</time>
      </trkpt>
      <trkpt lat="39.2373880" lon="-0.6666420">
        <ele>521.0</ele>
        <time>2022-04-09T10:31:20Z</time>
      </trkpt>
      <trkpt lat="39.2368880" lon="-0.6657800">
        <ele>528.4</ele>
        <time>2022-04-09T10:31:55Z</time>
      </trkpt>
      <trkpt lat="39.2364720" lon="-0.6662190">
        <ele>534.1</ele>
        <time>2022-04-09T10:32:16Z</time>
      </trkpt>
      <trkpt lat="39.2357320" lon="-0.6666130">
        <ele>541.0</ele>
        <time>2022-04-09T10:32:47Z</time>
      </trkpt>
      <trkpt lat="39.2348660" lon="-0.6662930">
        <ele>550.0</ele>
        <time>2022-04-09T10:33:19Z</time>
      </trkpt>
      <trkpt lat="39.2339840" lon="-0.6669230">
        <ele>547.7</ele>
        <time>2022-04-09T10:33:48Z</time>
      </trkpt>
      <trkpt lat="39.2335280" lon="-0.6664820">
        <ele>543.4</ele>
        <time>2022-04-09T10:33:57Z</time>
      </trkpt>
      <trkpt lat="39.2325150" lon="-0.6650010">
        <ele>529.7</ele>
        <time>2022-04-09T10:34:16Z</time>
      </trkpt>
      <trkpt lat="39.2313510" lon="-0.6641590">
        <ele>515.8</ele>
        <time>2022-04-09T10:34:29Z</time>
      </trkpt>
      <trkpt lat="39.2304640" lon="-0.6644690">
        <ele>508.4</ele>
        <time>2022-04-09T10:34:38Z</time>
      </trkpt>
      <trkpt lat="39.2300020" lon="-0.6641940">
        <ele>509.3</ele>
        <time>2022-04-09T10:34:47Z</time>
      </trkpt>
      <trkpt lat="39.2284860" lon="-0.6638440">
        <ele>507.7</ele>
        <time>2022-04-09T10:35:11Z</time>
      </trkpt>
      <trkpt lat="39.2275190" lon="-0.6631830">
        <ele>507.6</ele>
        <time>2022-04-09T10:35:28Z</time>
      </trkpt>
      <trkpt lat="39.2271210" lon="-0.6621690">
        <ele>509.9</ele>
        <time>2022-04-09T10:35:43Z</time>
      </trkpt>
      <trkpt lat="39.2252110" lon="-0.6612090">
        <ele>528.4</ele>
        <time>2022-04-09T10:36:49Z</time>
      </trkpt>
      <trkpt lat="39.2246820" lon="-0.6605640">
        <ele>529.9</ele>
        <time>2022-04-09T10:37:10Z</time>
      </trkpt>
      <trkpt lat="39.2239590" lon="-0.6615480">
        <ele>526.6</ele>
        <time>2022-04-09T10:37:32Z</time>
      </trkpt>
      <trkpt lat="39.2227300" lon="-0.6620560">
        <ele>529.6</ele>
        <time>2022-04-09T10:37:58Z</time>
      </trkpt>
      <trkpt lat="39.2222550" lon="-0.6615990">
        <ele>526.5</ele>
        <time>2022-04-09T10:38:07Z</time>
      </trkpt>
      <trkpt lat="39.2204240" lon="-0.6583580">
        <ele>515.1</ele>
        <time>2022-04-09T10:38:42Z</time>
      </trkpt>
      <trkpt lat="39.2202060" lon="-0.6582570">
        <ele>516.7</ele>
        <time>2022-04-09T10:38:45Z</time>
      </trkpt>
      <trkpt lat="39.2196330" lon="-0.6584760">
        <ele>521.7</ele>
        <time>2022-04-09T10:38:56Z</time>
      </trkpt>
      <trkpt lat="39.2191210" lon="-0.6590570">
        <ele>520.7</ele>
        <time>2022-04-09T10:39:14Z</time>
      </trkpt>
      <trkpt lat="39.2205640" lon="-0.6605110">
        <ele>506.1</ele>
        <time>2022-04-09T10:39:39Z</time>
      </trkpt>
      <trkpt lat="39.2207800" lon="-0.6611590">
        <ele>502.2</ele>
        <time>2022-04-09T10:39:45Z</time>
      </trkpt>
      <trkpt lat="39.2207380" lon="-0.6649590">
        <ele>487.4</ele>
        <time>2022-04-09T10:40:18Z</time>
      </trkpt>
      <trkpt lat="39.2208880" lon="-0.6663160">
        <ele>483.1</ele>
        <time>2022-04-09T10:40:34Z</time>
      </trkpt>
      <trkpt lat="39.2207580" lon="-0.6668080">
        <ele>481.1</ele>
        <time>2022-04-09T10:40:39Z</time>
      </trkpt>
      <trkpt lat="39.2203610" lon="-0.6673400">
        <ele>478.4</ele>
        <time>2022-04-09T10:40:47Z</time>
      </trkpt>
      <trkpt lat="39.2203080" lon="-0.6687170">
        <ele>471.5</ele>
        <time>2022-04-09T10:41:00Z</time>
      </trkpt>
      <trkpt lat="39.2199210" lon="-0.6703280">
        <ele>464.2</ele>
        <time>2022-04-09T10:41:20Z</time>
      </trkpt>
      <trkpt lat="39.2199300" lon="-0.6710200">
        <ele>461.1</ele>
        <time>2022-04-09T10:41:31Z</time>
      </trkpt>
      <trkpt lat="39.2203860" lon="-0.6726380">
        <ele>455.4</ele>
        <time>2022-04-09T10:42:03Z</time>
      </trkpt>
      <trkpt lat="39.2196270" lon="-0.6735400">
        <ele>454.0</ele>
        <time>2022-04-09T10:42:25Z</time>
      </trkpt>
      <trkpt lat="39.2181040" lon="-0.6768710">
        <ele>443.4</ele>
        <time>2022-04-09T10:43:27Z</time>
      </trkpt>
      <trkpt lat="39.2177720" lon="-0.6772290">
        <ele>441.5</ele>
        <time>2022-04-09T10:43:38Z</time>
      </trkpt>
      <trkpt lat="39.2175900" lon="-0.6780560">
        <ele>441.3</ele>
        <time>2022-04-09T10:43:57Z</time>
      </trkpt>
      <trkpt lat="39.2191710" lon="-0.6794140">
        <ele>442.8</ele>
        <time>2022-04-09T10:51:45Z</time>
      </trkpt>
      <trkpt lat="39.2200300" lon="-0.6804910">
        <ele>444.9</ele>
        <time>2022-04-09T10:52:16Z</time>
      </trkpt>
      <trkpt lat="39.2204630" lon="-0.6806260">
        <ele>444.8</ele>
        <time>2022-04-09T10:52:27Z</time>
      </trkpt>
      <trkpt lat="39.2210350" lon="-0.6812670">
        <ele>444.9</ele>
        <time>2022-04-09T10:52:46Z</time>
      </trkpt>
      <trkpt lat="39.2209500" lon="-0.6829540">
        <ele>449.5</ele>
        <time>2022-04-09T10:53:25Z</time>
      </trkpt>
      <trkpt lat="39.2214770" lon="-0.6856880">
        <ele>460.9</ele>
        <time>2022-04-09T10:54:39Z</time>
      </trkpt>
      <trkpt lat="39.2224970" lon="-0.6865270">
        <ele>467.8</ele>
        <time>2022-04-09T10:55:20Z</time>
      </trkpt>
      <trkpt lat="39.2234780" lon="-0.6878090">
        <ele>476.5</ele>
        <time>2022-04-09T10:56:15Z</time>
      </trkpt>
      <trkpt lat="39.2240660" lon="-0.6883280">
        <ele>482.7</ele>
        <time>2022-04-09T10:56:46Z</time>
      </trkpt>
      <trkpt lat="39.2250720" lon="-0.6899990">
        <ele>501.7</ele>
        <time>2022-04-09T10:58:11Z</time>
      </trkpt>
      <trkpt lat="39.2261500" lon="-0.6912290">
        <ele>511.7</ele>
        <time>2022-04-09T10:59:27Z</time>
      </trkpt>
      <trkpt lat="39.2263650" lon="-0.6937570">
        <ele>532.8</ele>
        <time>2022-04-09T11:01:58Z</time>
      </trkpt>
      <trkpt lat="39.2267140" lon="-0.6937970">
        <ele>539.2</ele>
        <time>2022-04-09T11:02:53Z</time>
      </trkpt>
      <trkpt lat="39.2275730" lon="-0.6944410">
        <ele>545.1</ele>
        <time>2022-04-09T11:03:42Z</time>
      </trkpt>
      <trkpt lat="39.2287950" lon="-0.6943600">
        <ele>557.6</ele>
        <time>2022-04-09T11:04:44Z</time>
      </trkpt>
      <trkpt lat="39.2296480" lon="-0.6952950">
        <ele>559.3</ele>
        <time>2022-04-09T11:06:50Z</time>
      </trkpt>
      <trkpt lat="39.2306320" lon="-0.6959790">
        <ele>560.1</ele>
        <time>2022-04-09T11:08:11Z</time>
      </trkpt>
      <trkpt lat="39.2314100" lon="-0.6960430">
        <ele>569.1</ele>
        <time>2022-04-09T11:08:46Z</time>
      </trkpt>
      <trkpt lat="39.2326690" lon="-0.6964640">
        <ele>591.3</ele>
        <time>2022-04-09T11:11:50Z</time>
      </trkpt>
      <trkpt lat="39.2329830" lon="-0.6967550">
        <ele>592.2</ele>
        <time>2022-04-09T11:12:08Z</time>
      </trkpt>
      <trkpt lat="39.2335660" lon="-0.6977460">
        <ele>581.7</ele>
        <time>2022-04-09T11:12:40Z</time>
      </trkpt>
      <trkpt lat="39.2341330" lon="-0.6979700">
        <ele>576.6</ele>
        <time>2022-04-09T11:13:02Z</time>
      </trkpt>
      <trkpt lat="39.2355350" lon="-0.6975980">
        <ele>601.3</ele>
        <time>2022-04-09T11:14:24Z</time>
      </trkpt>
      <trkpt lat="39.2359910" lon="-0.6980230">
        <ele>598.7</ele>
        <time>2022-04-09T11:14:46Z</time>
      </trkpt>
      <trkpt lat="39.2367350" lon="-0.6983110">
        <ele>595.8</ele>
        <time>2022-04-09T11:15:02Z</time>
      </trkpt>
      <trkpt lat="39.2372150" lon="-0.6982730">
        <ele>601.1</ele>
        <time>2022-04-09T11:15:19Z</time>
      </trkpt>
      <trkpt lat="39.2380070" lon="-0.6987400">
        <ele>611.7</ele>
        <time>2022-04-09T11:16:10Z</time>
      </trkpt>
      <trkpt lat="39.2387850" lon="-0.7000240">
        <ele>611.9</ele>
        <time>2022-04-09T11:17:08Z</time>
      </trkpt>
      <trkpt lat="39.2401530" lon="-0.6999620">
        <ele>625.3</ele>
        <time>2022-04-09T11:18:00Z</time>
      </trkpt>
      <trkpt lat="39.2409680" lon="-0.7002590">
        <ele>636.1</ele>
        <time>2022-04-09T11:18:45Z</time>
      </trkpt>
      <trkpt lat="39.2418050" lon="-0.7012840">
        <ele>635.8</ele>
        <time>2022-04-09T11:19:39Z</time>
      </trkpt>
      <trkpt lat="39.2437120" lon="-0.7015190">
        <ele>625.4</ele>
        <time>2022-04-09T11:20:47Z</time>
      </trkpt>
      <trkpt lat="39.2451690" lon="-0.7021140">
        <ele>632.8</ele>
        <time>2022-04-09T11:22:44Z</time>
      </trkpt>
      <trkpt lat="39.2456950" lon="-0.7021110">
        <ele>642.6</ele>
        <time>2022-04-09T11:23:09Z</time>
      </trkpt>
      <trkpt lat="39.2458830" lon="-0.7022540">
        <ele>643.6</ele>
        <time>2022-04-09T11:23:20Z</time>
      </trkpt>
      <trkpt lat="39.2455110" lon="-0.7024120">
        <ele>626.9</ele>
        <time>2022-04-09T11:23:46Z</time>
      </trkpt>
      <trkpt lat="39.2450510" lon="-0.7032440">
        <ele>591.4</ele>
        <time>2022-04-09T11:24:24Z</time>
      </trkpt>
      <trkpt lat="39.2456410" lon="-0.7029850">
        <ele>611.4</ele>
        <time>2022-04-09T11:28:11Z</time>
      </trkpt>
      <trkpt lat="39.2465290" lon="-0.7042300">
        <ele>608.8</ele>
        <time>2022-04-09T11:29:15Z</time>
      </trkpt>
      <trkpt lat="39.2471360" lon="-0.7044060">
        <ele>605.6</ele>
        <time>2022-04-09T11:29:48Z</time>
      </trkpt>
      <trkpt lat="39.2477730" lon="-0.7038430">
        <ele>632.8</ele>
        <time>2022-04-09T11:30:13Z</time>
      </trkpt>
      <trkpt lat="39.2488750" lon="-0.7046850">
        <ele>622.6</ele>
        <time>2022-04-09T11:31:10Z</time>
      </trkpt>
      <trkpt lat="39.2496740" lon="-0.7046360">
        <ele>633.7</ele>
        <time>2022-04-09T11:31:40Z</time>
      </trkpt>
      <trkpt lat="39.2507190" lon="-0.7051630">
        <ele>645.5</ele>
        <time>2022-04-09T11:32:23Z</time>
      </trkpt>
      <trkpt lat="39.2511170" lon="-0.7056370">
        <ele>652.5</ele>
        <time>2022-04-09T11:32:47Z</time>
      </trkpt>
      <trkpt lat="39.2512840" lon="-0.7064090">
        <ele>646.6</ele>
        <time>2022-04-09T11:33:12Z</time>
      </trkpt>
      <trkpt lat="39.2515420" lon="-0.7068560">
        <ele>637.6</ele>
        <time>2022-04-09T11:33:31Z</time>
      </trkpt>
      <trkpt lat="39.2521270" lon="-0.7068400">
        <ele>627.4</ele>
        <time>2022-04-09T11:33:53Z</time>
      </trkpt>
      <trkpt lat="39.2534160" lon="-0.7059070">
        <ele>644.7</ele>
        <time>2022-04-09T11:34:19Z</time>
      </trkpt>
      <trkpt lat="39.2539720" lon="-0.7062860">
        <ele>636.7</ele>
        <time>2022-04-09T11:34:33Z</time>
      </trkpt>
      <trkpt lat="39.2543650" lon="-0.7063310">
        <ele>648.4</ele>
        <time>2022-04-09T11:34:43Z</time>
      </trkpt>
      <trkpt lat="39.2549610" lon="-0.7068770">
        <ele>658.1</ele>
        <time>2022-04-09T11:35:02Z</time>
      </trkpt>
      <trkpt lat="39.2553200" lon="-0.7077360">
        <ele>641.2</ele>
        <time>2022-04-09T11:35:23Z</time>
      </trkpt>
      <trkpt lat="39.2556400" lon="-0.7080890">
        <ele>633.0</ele>
        <time>2022-04-09T11:35:35Z</time>
      </trkpt>
      <trkpt lat="39.2565210" lon="-0.7082510">
        <ele>633.5</ele>
        <time>2022-04-09T11:35:54Z</time>
      </trkpt>
      <trkpt lat="39.2571060" lon="-0.7085520">
        <ele>642.8</ele>
        <time>2022-04-09T11:36:09Z</time>
      </trkpt>
      <trkpt lat="39.2572450" lon="-0.7087970">
        <ele>644.8</ele>
        <time>2022-04-09T11:38:40Z</time>
      </trkpt>
      <trkpt lat="39.2573740" lon="-0.7100720">
        <ele>643.4</ele>
        <time>2022-04-09T11:39:29Z</time>
      </trkpt>
      <trkpt lat="39.2564540" lon="-0.7113810">
        <ele>648.5</ele>
        <time>2022-04-09T11:40:22Z</time>
      </trkpt>
      <trkpt lat="39.2556500" lon="-0.7118360">
        <ele>642.7</ele>
        <time>2022-04-09T11:40:44Z</time>
      </trkpt>
      <trkpt lat="39.2556340" lon="-0.7121340">
        <ele>639.5</ele>
        <time>2022-04-09T11:40:50Z</time>
      </trkpt>
      <trkpt lat="39.2566470" lon="-0.7130050">
        <ele>635.4</ele>
        <time>2022-04-09T11:41:25Z</time>
      </trkpt>
      <trkpt lat="39.2575310" lon="-0.7132000">
        <ele>633.8</ele>
        <time>2022-04-09T11:41:48Z</time>
      </trkpt>
      <trkpt lat="39.2580200" lon="-0.7129240">
        <ele>629.9</ele>
        <time>2022-04-09T11:41:58Z</time>
      </trkpt>
      <trkpt lat="39.2584950" lon="-0.7116980">
        <ele>617.1</ele>
        <time>2022-04-09T11:42:13Z</time>
      </trkpt>
      <trkpt lat="39.2587010" lon="-0.7116720">
        <ele>615.4</ele>
        <time>2022-04-09T11:42:16Z</time>
      </trkpt>
      <trkpt lat="39.2589210" lon="-0.7120190">
        <ele>611.3</ele>
        <time>2022-04-09T11:42:22Z</time>
      </trkpt>
      <trkpt lat="39.2592080" lon="-0.7119630">
        <ele>608.1</ele>
        <time>2022-04-09T11:42:27Z</time>
      </trkpt>
      <trkpt lat="39.2597290" lon="-0.7123830">
        <ele>600.2</ele>
        <time>2022-04-09T11:42:36Z</time>
      </trkpt>
      <trkpt lat="39.2608910" lon="-0.7140530">
        <ele>580.5</ele>
        <time>2022-04-09T11:43:00Z</time>
      </trkpt>
      <trkpt lat="39.2611690" lon="-0.7140150">
        <ele>576.8</ele>
        <time>2022-04-09T11:43:04Z</time>
      </trkpt>
      <trkpt lat="39.2615840" lon="-0.7135940">
        <ele>566.5</ele>
        <time>2022-04-09T11:43:12Z</time>
      </trkpt>
      <trkpt lat="39.2621580" lon="-0.7143400">
        <ele>549.5</ele>
        <time>2022-04-09T11:43:22Z</time>
      </trkpt>
      <trkpt lat="39.2624840" lon="-0.7153790">
        <ele>535.6</ele>
        <time>2022-04-09T11:43:31Z</time>
      </trkpt>
      <trkpt lat="39.2624430" lon="-0.7163050">
        <ele>526.6</ele>
        <time>2022-04-09T11:43:38Z</time>
      </trkpt>
      <trkpt lat="39.2626950" lon="-0.7172170">
        <ele>516.3</ele>
        <time>2022-04-09T11:43:46Z</time>
      </trkpt>
      <trkpt lat="39.2630170" lon="-0.7171350">
        <ele>511.6</ele>
        <time>2022-04-09T11:43:54Z</time>
      </trkpt>
      <trkpt lat="39.2629810" lon="-0.7182930">
        <ele>498.5</ele>
        <time>2022-04-09T11:44:06Z</time>
      </trkpt>
      <trkpt lat="39.2632000" lon="-0.7203020">
        <ele>483.2</ele>
        <time>2022-04-09T11:44:27Z</time>
      </trkpt>
      <trkpt lat="39.2628860" lon="-0.7209300">
        <ele>479.5</ele>
        <time>2022-04-09T11:44:38Z</time>
      </trkpt>
      <trkpt lat="39.2608350" lon="-0.7217660">
        <ele>467.1</ele>
        <time>2022-04-09T11:45:12Z</time>
      </trkpt>
      <trkpt lat="39.2599850" lon="-0.7218120">
        <ele>463.2</ele>
        <time>2022-04-09T11:45:23Z</time>
      </trkpt>
      <trkpt lat="39.2595930" lon="-0.7220780">
        <ele>461.2</ele>
        <time>2022-04-09T11:45:29Z</time>
      </trkpt>
      <trkpt lat="39.2596000" lon="-0.7241660">
        <ele>453.2</ele>
        <time>2022-04-09T11:45:55Z</time>
      </trkpt>
      <trkpt lat="39.2600680" lon="-0.7260110">
        <ele>445.5</ele>
        <time>2022-04-09T11:46:20Z</time>
      </trkpt>
      <trkpt lat="39.2598620" lon="-0.7272100">
        <ele>441.4</ele>
        <time>2022-04-09T11:46:50Z</time>
      </trkpt>
      <trkpt lat="39.2601780" lon="-0.7285630">
        <ele>435.1</ele>
        <time>2022-04-09T11:47:20Z</time>
      </trkpt>
      <trkpt lat="39.2610920" lon="-0.7308820">
        <ele>429.7</ele>
        <time>2022-04-09T11:47:51Z</time>
      </trkpt>
      <trkpt lat="39.2619360" lon="-0.7313910">
        <ele>428.9</ele>
        <time>2022-04-09T11:48:09Z</time>
      </trkpt>
      <trkpt lat="39.2622500" lon="-0.7325570">
        <ele>425.9</ele>
        <time>2022-04-09T11:48:23Z</time>
      </trkpt>
      <trkpt lat="39.2623340" lon="-0.7354560">
        <ele>430.5</ele>
        <time>2022-04-09T11:49:10Z</time>
      </trkpt>
      <trkpt lat="39.2626050" lon="-0.7366830">
        <ele>428.5</ele>
        <time>2022-04-09T11:49:26Z</time>
      </trkpt>
      <trkpt lat="39.2629850" lon="-0.7399220">
        <ele>432.0</ele>
        <time>2022-04-09T11:50:17Z</time>
      </trkpt>
      <trkpt lat="39.2628820" lon="-0.7426940">
        <ele>429.9</ele>
        <time>2022-04-09T11:51:10Z</time>
      </trkpt>
      <trkpt lat="39.2633630" lon="-0.7431900">
        <ele>433.6</ele>
        <time>2022-04-09T11:51:26Z</time>
      </trkpt>
      <trkpt lat="39.2635940" lon="-0.7468570">
        <ele>438.8</ele>
        <time>2022-04-09T11:52:38Z</time>
      </trkpt>
      <trkpt lat="39.2634880" lon="-0.7474540">
        <ele>438.9</ele>
        <time>2022-04-09T11:52:47Z</time>
      </trkpt>
      <trkpt lat="39.2631680" lon="-0.7479980">
        <ele>441.0</ele>
        <time>2022-04-09T11:52:58Z</time>
      </trkpt>
      <trkpt lat="39.2638060" lon="-0.7488990">
        <ele>447.8</ele>
        <time>2022-04-09T11:53:22Z</time>
      </trkpt>
      <trkpt lat="39.2648690" lon="-0.7497190">
        <ele>453.5</ele>
        <time>2022-04-09T11:53:52Z</time>
      </trkpt>
      <trkpt lat="39.2648570" lon="-0.7413470">
        <ele>444.6</ele>
        <time>2021-10-12T08:36:16Z</time>
      </trkpt>
      <trkpt lat="39.2658060" lon="-0.7407810">
        <ele>452.8</ele>
        <time>2021-10-12T08:36:58Z</time>
      </trkpt>
      <trkpt lat="39.2666710" lon="-0.7413620">
        <ele>464.5</ele>
        <time>2021-10-12T08:37:42Z</time>
      </trkpt>
      <trkpt lat="39.2676480" lon="-0.7416070">
        <ele>477.4</ele>
        <time>2021-10-12T08:38:29Z</time>
      </trkpt>
      <trkpt lat="39.2706480" lon="-0.7412510">
        <ele>502.5</ele>
        <time>2021-10-12T08:40:33Z</time>
      </trkpt>
      <trkpt lat="39.2704400" lon="-0.7403490">
        <ele>510.9</ele>
        <time>2021-10-12T08:41:10Z</time>
      </trkpt>
      <trkpt lat="39.2715160" lon="-0.7404420">
        <ele>522.6</ele>
        <time>2021-10-12T08:41:59Z</time>
      </trkpt>
      <trkpt lat="39.2729760" lon="-0.7400310">
        <ele>531.2</ele>
        <time>2021-10-12T08:42:57Z</time>
      </trkpt>
      <trkpt lat="39.2733840" lon="-0.7397380">
        <ele>533.3</ele>
        <time>2021-10-12T08:43:12Z</time>
      </trkpt>
      <trkpt lat="39.2739180" lon="-0.7397880">
        <ele>534.9</ele>
        <time>2021-10-12T08:43:29Z</time>
      </trkpt>
      <trkpt lat="39.2742720" lon="-0.7395140">
        <ele>534.0</ele>
        <time>2021-10-12T08:43:37Z</time>
      </trkpt>
      <trkpt lat="39.2755120" lon="-0.7379190">
        <ele>541.4</ele>
        <time>2021-10-12T08:44:26Z</time>
      </trkpt>
      <trkpt lat="39.2759540" lon="-0.7370360">
        <ele>545.5</ele>
        <time>2021-10-12T08:44:51Z</time>
      </trkpt>
      <trkpt lat="39.2765500" lon="-0.7364330">
        <ele>550.3</ele>
        <time>2021-10-12T08:45:16Z</time>
      </trkpt>
      <trkpt lat="39.2764830" lon="-0.7358470">
        <ele>554.2</ele>
        <time>2021-10-12T08:45:35Z</time>
      </trkpt>
      <trkpt lat="39.2761690" lon="-0.7357470">
        <ele>557.7</ele>
        <time>2021-10-12T08:45:49Z</time>
      </trkpt>
      <trkpt lat="39.2758490" lon="-0.7351990">
        <ele>565.0</ele>
        <time>2021-10-12T08:46:12Z</time>
      </trkpt>
      <trkpt lat="39.2760300" lon="-0.7347870">
        <ele>572.3</ele>
        <time>2021-10-12T08:46:32Z</time>
      </trkpt>
      <trkpt lat="39.2763320" lon="-0.7349020">
        <ele>576.9</ele>
        <time>2021-10-12T08:46:47Z</time>
      </trkpt>
      <trkpt lat="39.2764160" lon="-0.7347850">
        <ele>578.5</ele>
        <time>2021-10-12T08:46:55Z</time>
      </trkpt>
      <trkpt lat="39.2761490" lon="-0.7342980">
        <ele>586.7</ele>
        <time>2021-10-12T08:47:22Z</time>
      </trkpt>
      <trkpt lat="39.2760520" lon="-0.7333410">
        <ele>597.7</ele>
        <time>2021-10-12T08:48:02Z</time>
      </trkpt>
      <trkpt lat="39.2764080" lon="-0.7323330">
        <ele>598.8</ele>
        <time>2021-10-12T08:48:32Z</time>
      </trkpt>
      <trkpt lat="39.2764600" lon="-0.7302690">
        <ele>612.8</ele>
        <time>2021-10-12T08:49:36Z</time>
      </trkpt>
      <trkpt lat="39.2763900" lon="-0.7281730">
        <ele>636.4</ele>
        <time>2021-10-12T08:50:58Z</time>
      </trkpt>
      <trkpt lat="39.2759300" lon="-0.7253180">
        <ele>669.8</ele>
        <time>2021-10-12T08:52:55Z</time>
      </trkpt>
      <trkpt lat="39.2757040" lon="-0.7215730">
        <ele>685.7</ele>
        <time>2021-10-12T08:54:44Z</time>
      </trkpt>
      <trkpt lat="39.2760290" lon="-0.7197530">
        <ele>698.4</ele>
        <time>2021-10-12T08:55:32Z</time>
      </trkpt>
      <trkpt lat="39.2762680" lon="-0.7193190">
        <ele>702.4</ele>
        <time>2021-10-12T08:55:46Z</time>
      </trkpt>
      <trkpt lat="39.2766150" lon="-0.7190480">
        <ele>706.0</ele>
        <time>2021-10-12T08:56:00Z</time>
      </trkpt>
      <trkpt lat="39.2770750" lon="-0.7190840">
        <ele>707.9</ele>
        <time>2021-10-12T08:56:21Z</time>
      </trkpt>
      <trkpt lat="39.2772580" lon="-0.7194490">
        <ele>704.7</ele>
        <time>2021-10-12T08:57:48Z</time>
      </trkpt>
      <trkpt lat="39.2778160" lon="-0.7224930">
        <ele>696.7</ele>
        <time>2021-10-12T08:58:19Z</time>
      </trkpt>
      <trkpt lat="39.2782100" lon="-0.7257250">
        <ele>697.3</ele>
        <time>2021-10-12T08:59:00Z</time>
      </trkpt>
      <trkpt lat="39.2787960" lon="-0.7271830">
        <ele>694.7</ele>
        <time>2021-10-12T08:59:23Z</time>
      </trkpt>
      <trkpt lat="39.2791110" lon="-0.7285270">
        <ele>692.0</ele>
        <time>2021-10-12T08:59:41Z</time>
      </trkpt>
      <trkpt lat="39.2791740" lon="-0.7298840">
        <ele>692.1</ele>
        <time>2021-10-12T08:59:58Z</time>
      </trkpt>
      <trkpt lat="39.2794090" lon="-0.7301040">
        <ele>693.2</ele>
        <time>2021-10-12T09:00:04Z</time>
      </trkpt>
      <trkpt lat="39.2797560" lon="-0.7310850">
        <ele>694.2</ele>
        <time>2021-10-12T09:00:21Z</time>
      </trkpt>
      <trkpt lat="39.2804040" lon="-0.7308100">
        <ele>694.1</ele>
        <time>2021-10-12T09:00:36Z</time>
      </trkpt>
      <trkpt lat="39.2810080" lon="-0.7321790">
        <ele>683.1</ele>
        <time>2021-10-12T09:00:55Z</time>
      </trkpt>
      <trkpt lat="39.2812950" lon="-0.7324690">
        <ele>681.8</ele>
        <time>2021-10-12T09:01:00Z</time>
      </trkpt>
      <trkpt lat="39.2814830" lon="-0.7324090">
        <ele>681.5</ele>
        <time>2021-10-12T09:01:03Z</time>
      </trkpt>
      <trkpt lat="39.2816420" lon="-0.7318370">
        <ele>679.6</ele>
        <time>2021-10-12T09:01:10Z</time>
      </trkpt>
      <trkpt lat="39.2821590" lon="-0.7289560">
        <ele>690.8</ele>
        <time>2021-10-12T09:01:54Z</time>
      </trkpt>
      <trkpt lat="39.2821740" lon="-0.7279040">
        <ele>691.5</ele>
        <time>2021-10-12T09:02:14Z</time>
      </trkpt>
      <trkpt lat="39.2823570" lon="-0.7274140">
        <ele>690.3</ele>
        <time>2021-10-12T09:02:23Z</time>
      </trkpt>
      <trkpt lat="39.2825180" lon="-0.7273020">
        <ele>690.2</ele>
        <time>2021-10-12T09:02:26Z</time>
      </trkpt>
      <trkpt lat="39.2828360" lon="-0.7274220">
        <ele>689.7</ele>
        <time>2021-10-12T09:02:33Z</time>
      </trkpt>
      <trkpt lat="39.2833700" lon="-0.7282020">
        <ele>687.7</ele>
        <time>2021-10-12T09:02:48Z</time>
      </trkpt>
      <trkpt lat="39.2836620" lon="-0.7281620">
        <ele>688.9</ele>
        <time>2021-10-12T09:02:53Z</time>
      </trkpt>
      <trkpt lat="39.2844620" lon="-0.7247620">
        <ele>684.9</ele>
        <time>2021-10-12T09:03:45Z</time>
      </trkpt>
      <trkpt lat="39.2847030" lon="-0.7245010">
        <ele>682.5</ele>
        <time>2021-10-12T09:03:49Z</time>
      </trkpt>
      <trkpt lat="39.2848240" lon="-0.7245820">
        <ele>680.6</ele>
        <time>2021-10-12T09:03:52Z</time>
      </trkpt>
      <trkpt lat="39.2851300" lon="-0.7259710">
        <ele>672.3</ele>
        <time>2021-10-12T09:04:05Z</time>
      </trkpt>
      <trkpt lat="39.2853620" lon="-0.7302300">
        <ele>644.4</ele>
        <time>2021-10-12T09:04:35Z</time>
      </trkpt>
      <trkpt lat="39.2859720" lon="-0.7344680">
        <ele>612.3</ele>
        <time>2021-10-12T09:05:03Z</time>
      </trkpt>
      <trkpt lat="39.2857890" lon="-0.7360140">
        <ele>602.2</ele>
        <time>2021-10-12T09:05:14Z</time>
      </trkpt>
      <trkpt lat="39.2864380" lon="-0.7382850">
        <ele>579.2</ele>
        <time>2021-10-12T09:05:30Z</time>
      </trkpt>
      <trkpt lat="39.2865390" lon="-0.7392300">
        <ele>572.7</ele>
        <time>2021-10-12T09:05:37Z</time>
      </trkpt>
      <trkpt lat="39.2862650" lon="-0.7404030">
        <ele>577.0</ele>
        <time>2021-10-12T09:05:55Z</time>
      </trkpt>
      <trkpt lat="39.2864240" lon="-0.7414250">
        <ele>568.9</ele>
        <time>2021-10-12T09:06:17Z</time>
      </trkpt>
      <trkpt lat="39.2862640" lon="-0.7432370">
        <ele>563.5</ele>
        <time>2021-10-12T09:06:46Z</time>
      </trkpt>
      <trkpt lat="39.2858210" lon="-0.7445500">
        <ele>550.1</ele>
        <time>2021-10-12T09:07:18Z</time>
      </trkpt>
      <trkpt lat="39.2854560" lon="-0.7448820">
        <ele>547.8</ele>
        <time>2021-10-12T09:07:33Z</time>
      </trkpt>
      <trkpt lat="39.2853530" lon="-0.7455390">
        <ele>541.9</ele>
        <time>2021-10-12T09:08:05Z</time>
      </trkpt>
      <trkpt lat="39.2850860" lon="-0.7456730">
        <ele>547.1</ele>
        <time>2021-10-12T09:08:34Z</time>
      </trkpt>
      <trkpt lat="39.2854260" lon="-0.7463190">
        <ele>541.6</ele>
        <time>2021-10-12T09:10:39Z</time>
      </trkpt>
      <trkpt lat="39.2857680" lon="-0.7485090">
        <ele>538.7</ele>
        <time>2021-10-12T09:12:04Z</time>
      </trkpt>
      <trkpt lat="39.2854770" lon="-0.7514510">
        <ele>540.4</ele>
        <time>2021-10-12T09:13:35Z</time>
      </trkpt>
      <trkpt lat="39.2856420" lon="-0.7524720">
        <ele>539.4</ele>
        <time>2021-10-12T09:14:05Z</time>
      </trkpt>
      <trkpt lat="39.2855820" lon="-0.7529840">
        <ele>544.8</ele>
        <time>2021-10-12T09:14:19Z</time>
      </trkpt>
      <trkpt lat="39.2857910" lon="-0.7538150">
        <ele>542.0</ele>
        <time>2021-10-12T09:14:46Z</time>
      </trkpt>
      <trkpt lat="39.2855400" lon="-0.7541960">
        <ele>554.4</ele>
        <time>2021-10-12T09:17:35Z</time>
      </trkpt>
      <trkpt lat="39.2855250" lon="-0.7544960">
        <ele>555.8</ele>
        <time>2021-10-12T09:17:45Z</time>
      </trkpt>
      <trkpt lat="39.2857660" lon="-0.7570180">
        <ele>541.8</ele>
        <time>2021-10-12T09:18:42Z</time>
      </trkpt>
      <trkpt lat="39.2854450" lon="-0.7579210">
        <ele>548.2</ele>
        <time>2021-10-12T09:19:05Z</time>
      </trkpt>
      <trkpt lat="39.2850360" lon="-0.7584000">
        <ele>558.6</ele>
        <time>2021-10-12T09:19:24Z</time>
      </trkpt>
      <trkpt lat="39.2847020" lon="-0.7583410">
        <ele>564.4</ele>
        <time>2021-10-12T09:19:46Z</time>
      </trkpt>
      <trkpt lat="39.2847140" lon="-0.7585900">
        <ele>568.6</ele>
        <time>2021-10-12T09:21:28Z</time>
      </trkpt>
      <trkpt lat="39.2852550" lon="-0.7588560">
        <ele>560.6</ele>
        <time>2021-10-12T09:21:45Z</time>
      </trkpt>
      <trkpt lat="39.2856870" lon="-0.7585910">
        <ele>551.7</ele>
        <time>2021-10-12T09:21:55Z</time>
      </trkpt>
      <trkpt lat="39.2859280" lon="-0.7586460">
        <ele>550.1</ele>
        <time>2021-10-12T09:22:01Z</time>
      </trkpt>
      <trkpt lat="39.2864940" lon="-0.7599980">
        <ele>548.8</ele>
        <time>2021-10-12T09:22:26Z</time>
      </trkpt>
      <trkpt lat="39.2871780" lon="-0.7605720">
        <ele>533.9</ele>
        <time>2021-10-12T09:22:43Z</time>
      </trkpt>
      <trkpt lat="39.2873610" lon="-0.7611370">
        <ele>527.5</ele>
        <time>2021-10-12T09:25:20Z</time>
      </trkpt>
      <trkpt lat="39.2874710" lon="-0.7612010">
        <ele>526.0</ele>
        <time>2021-10-12T09:25:23Z</time>
      </trkpt>
      <trkpt lat="39.2876860" lon="-0.7609960">
        <ele>527.4</ele>
        <time>2021-10-12T09:25:33Z</time>
      </trkpt>
      <trkpt lat="39.2877970" lon="-0.7610900">
        <ele>526.6</ele>
        <time>2021-10-12T09:25:37Z</time>
      </trkpt>
      <trkpt lat="39.2874210" lon="-0.7622550">
        <ele>516.3</ele>
        <time>2021-10-12T09:26:01Z</time>
      </trkpt>
      <trkpt lat="39.2872640" lon="-0.7622870">
        <ele>514.3</ele>
        <time>2021-10-12T09:26:05Z</time>
      </trkpt>
      <trkpt lat="39.2869530" lon="-0.7618290">
        <ele>510.4</ele>
        <time>2021-10-12T09:26:15Z</time>
      </trkpt>
      <trkpt lat="39.2868140" lon="-0.7619540">
        <ele>509.1</ele>
        <time>2021-10-12T09:26:20Z</time>
      </trkpt>
      <trkpt lat="39.2869260" lon="-0.7633320">
        <ele>499.6</ele>
        <time>2021-10-12T09:26:36Z</time>
      </trkpt>
      <trkpt lat="39.2875530" lon="-0.7642660">
        <ele>493.9</ele>
        <time>2021-10-12T09:26:56Z</time>
      </trkpt>
      <trkpt lat="39.2878440" lon="-0.7656800">
        <ele>489.7</ele>
        <time>2021-10-12T09:27:17Z</time>
      </trkpt>
      <trkpt lat="39.2877130" lon="-0.7687850">
        <ele>475.6</ele>
        <time>2021-10-12T09:27:54Z</time>
      </trkpt>
      <trkpt lat="39.2875710" lon="-0.7691460">
        <ele>472.1</ele>
        <time>2021-10-12T09:27:59Z</time>
      </trkpt>
      <trkpt lat="39.2871730" lon="-0.7693880">
        <ele>466.7</ele>
        <time>2021-10-12T09:28:06Z</time>
      </trkpt>
      <trkpt lat="39.2871100" lon="-0.7696650">
        <ele>464.7</ele>
        <time>2021-10-12T09:28:10Z</time>
      </trkpt>
      <trkpt lat="39.2877410" lon="-0.7704120">
        <ele>458.3</ele>
        <time>2021-10-12T09:28:24Z</time>
      </trkpt>
      <trkpt lat="39.2878540" lon="-0.7709650">
        <ele>456.5</ele>
        <time>2021-10-12T09:28:31Z</time>
      </trkpt>
      <trkpt lat="39.2876280" lon="-0.7714390">
        <ele>455.6</ele>
        <time>2021-10-12T09:28:40Z</time>
      </trkpt>
      <trkpt lat="39.2879560" lon="-0.7717610">
        <ele>453.4</ele>
        <time>2021-10-12T09:28:47Z</time>
      </trkpt>
      <trkpt lat="39.2882230" lon="-0.7728980">
        <ele>450.3</ele>
        <time>2021-10-12T09:29:05Z</time>
      </trkpt>
      <trkpt lat="39.2880150" lon="-0.7733030">
        <ele>448.9</ele>
        <time>2021-10-12T09:29:12Z</time>
      </trkpt>
      <trkpt lat="39.2873780" lon="-0.7738080">
        <ele>443.6</ele>
        <time>2021-10-12T09:29:23Z</time>
      </trkpt>
      <trkpt lat="39.2876730" lon="-0.7744030">
        <ele>439.4</ele>
        <time>2021-10-12T09:29:31Z</time>
      </trkpt>
      <trkpt lat="39.2875640" lon="-0.7750980">
        <ele>436.3</ele>
        <time>2021-10-12T09:29:39Z</time>
      </trkpt>
      <trkpt lat="39.2867990" lon="-0.7754420">
        <ele>431.2</ele>
        <time>2021-10-12T09:29:50Z</time>
      </trkpt>
      <trkpt lat="39.2864000" lon="-0.7758640">
        <ele>428.0</ele>
        <time>2021-10-12T09:29:57Z</time>
      </trkpt>
      <trkpt lat="39.2865420" lon="-0.7761580">
        <ele>426.5</ele>
        <time>2021-10-12T09:30:03Z</time>
      </trkpt>
      <trkpt lat="39.2869990" lon="-0.7762700">
        <ele>426.1</ele>
        <time>2021-10-12T09:30:13Z</time>
      </trkpt>
      <trkpt lat="39.2873630" lon="-0.7767280">
        <ele>425.8</ele>
        <time>2021-10-12T09:30:23Z</time>
      </trkpt>
      <trkpt lat="39.2872430" lon="-0.7775790">
        <ele>425.3</ele>
        <time>2021-10-12T09:30:36Z</time>
      </trkpt>
      <trkpt lat="39.2874170" lon="-0.7790000">
        <ele>421.5</ele>
        <time>2021-10-12T09:30:55Z</time>
      </trkpt>
      <trkpt lat="39.2871710" lon="-0.7802290">
        <ele>412.6</ele>
        <time>2021-10-12T09:31:09Z</time>
      </trkpt>
      <trkpt lat="39.2872160" lon="-0.7806650">
        <ele>409.6</ele>
        <time>2021-10-12T09:31:15Z</time>
      </trkpt>
      <trkpt lat="39.2866750" lon="-0.7811010">
        <ele>404.3</ele>
        <time>2021-10-12T09:31:26Z</time>
      </trkpt>
      <trkpt lat="39.2867060" lon="-0.7817300">
        <ele>402.6</ele>
        <time>2021-10-12T09:31:35Z</time>
      </trkpt>
      <trkpt lat="39.2863940" lon="-0.7823210">
        <ele>404.0</ele>
        <time>2021-10-12T09:31:49Z</time>
      </trkpt>
      <trkpt lat="39.2871490" lon="-0.7826360">
        <ele>404.8</ele>
        <time>2021-10-12T09:32:09Z</time>
      </trkpt>
      <trkpt lat="39.2872810" lon="-0.7833400">
        <ele>404.4</ele>
        <time>2021-10-12T09:32:22Z</time>
      </trkpt>
      <trkpt lat="39.2877000" lon="-0.7839270">
        <ele>402.4</ele>
        <time>2021-10-12T09:32:35Z</time>
      </trkpt>
      <trkpt lat="39.2877690" lon="-0.7844940">
        <ele>400.4</ele>
        <time>2021-10-12T09:32:43Z</time>
      </trkpt>
      <trkpt lat="39.2875380" lon="-0.7857800">
        <ele>393.4</ele>
        <time>2021-10-12T09:32:59Z</time>
      </trkpt>
      <trkpt lat="39.2875820" lon="-0.7868960">
        <ele>388.8</ele>
        <time>2021-10-12T09:33:13Z</time>
      </trkpt>
      <trkpt lat="39.2880560" lon="-0.7884480">
        <ele>380.9</ele>
        <time>2021-10-12T09:33:31Z</time>
      </trkpt>
      <trkpt lat="39.2882090" lon="-0.7895960">
        <ele>373.0</ele>
        <time>2021-10-12T09:33:41Z</time>
      </trkpt>
      <trkpt lat="39.2874520" lon="-0.7906310">
        <ele>365.9</ele>
        <time>2021-10-12T09:33:56Z</time>
      </trkpt>
      <trkpt lat="39.2871000" lon="-0.7908990">
        <ele>363.5</ele>
        <time>2021-10-12T09:34:02Z</time>
      </trkpt>
      <trkpt lat="39.2871460" lon="-0.7915480">
        <ele>358.8</ele>
        <time>2021-10-12T09:34:11Z</time>
      </trkpt>
      <trkpt lat="39.2869400" lon="-0.7928530">
        <ele>350.3</ele>
        <time>2021-10-12T09:34:29Z</time>
      </trkpt>
      <trkpt lat="39.2867410" lon="-0.7930290">
        <ele>349.1</ele>
        <time>2021-10-12T09:34:34Z</time>
      </trkpt>
      <trkpt lat="39.2864520" lon="-0.7929040">
        <ele>350.1</ele>
        <time>2021-10-12T09:34:44Z</time>
      </trkpt>
      <trkpt lat="39.2864000" lon="-0.7939120">
        <ele>350.5</ele>
        <time>2021-10-12T09:34:59Z</time>
      </trkpt>
      <trkpt lat="39.2854520" lon="-0.7964530">
        <ele>354.7</ele>
        <time>2021-10-12T09:35:46Z</time>
      </trkpt>
      <trkpt lat="39.2843090" lon="-0.7970190">
        <ele>356.2</ele>
        <time>2021-10-12T09:36:12Z</time>
      </trkpt>
      <trkpt lat="39.2839280" lon="-0.7969930">
        <ele>351.7</ele>
        <time>2021-10-12T09:36:19Z</time>
      </trkpt>
      <trkpt lat="39.2836330" lon="-0.7971410">
        <ele>348.0</ele>
        <time>2021-10-12T09:36:26Z</time>
      </trkpt>
      <trkpt lat="39.2837580" lon="-0.7974290">
        <ele>344.8</ele>
        <time>2021-10-12T09:36:33Z</time>
      </trkpt>
      <trkpt lat="39.2841010" lon="-0.7974030">
        <ele>340.8</ele>
        <time>2021-10-12T09:36:40Z</time>
      </trkpt>
      <trkpt lat="39.2845610" lon="-0.7980600">
        <ele>333.8</ele>
        <time>2021-10-12T09:36:51Z</time>
      </trkpt>
      <trkpt lat="39.2850000" lon="-0.7980730">
        <ele>328.5</ele>
        <time>2021-10-12T09:36:59Z</time>
      </trkpt>
      <trkpt lat="39.2845650" lon="-0.7984040">
        <ele>321.4</ele>
        <time>2021-10-12T09:37:07Z</time>
      </trkpt>
      <trkpt lat="39.2839050" lon="-0.7982870">
        <ele>312.4</ele>
        <time>2021-10-12T09:37:16Z</time>
      </trkpt>
      <trkpt lat="39.2835810" lon="-0.7984240">
        <ele>307.5</ele>
        <time>2021-10-12T09:37:21Z</time>
      </trkpt>
      <trkpt lat="39.2839620" lon="-0.7992330">
        <ele>295.7</ele>
        <time>2021-10-12T09:37:30Z</time>
      </trkpt>
      <trkpt lat="39.2844320" lon="-0.7995450">
        <ele>294.7</ele>
        <time>2021-10-12T09:37:43Z</time>
      </trkpt>
      <trkpt lat="39.2846440" lon="-0.8003270">
        <ele>291.0</ele>
        <time>2021-10-12T09:38:01Z</time>
      </trkpt>
      <trkpt lat="39.2847700" lon="-0.8004040">
        <ele>293.9</ele>
        <time>2021-10-12T09:38:05Z</time>
      </trkpt>
      <trkpt lat="39.2848880" lon="-0.8002840">
        <ele>296.8</ele>
        <time>2021-10-12T09:38:14Z</time>
      </trkpt>
      <trkpt lat="39.2847750" lon="-0.8010320">
        <ele>303.3</ele>
        <time>2021-10-12T09:42:50Z</time>
      </trkpt>
      <trkpt lat="39.2840500" lon="-0.8011670">
        <ele>306.2</ele>
        <time>2021-10-12T09:43:14Z</time>
      </trkpt>
      <trkpt lat="39.2835540" lon="-0.8008520">
        <ele>311.9</ele>
        <time>2021-10-12T09:43:33Z</time>
      </trkpt>
      <trkpt lat="39.2832450" lon="-0.8004870">
        <ele>313.8</ele>
        <time>2021-10-12T09:43:52Z</time>
      </trkpt>
      <trkpt lat="39.2825530" lon="-0.7989930">
        <ele>325.2</ele>
        <time>2021-10-12T09:44:58Z</time>
      </trkpt>
      <trkpt lat="39.2820580" lon="-0.7986600">
        <ele>331.9</ele>
        <time>2021-10-12T09:45:22Z</time>
      </trkpt>
      <trkpt lat="39.2817760" lon="-0.7987660">
        <ele>335.9</ele>
        <time>2021-10-12T09:45:41Z</time>
      </trkpt>
      <trkpt lat="39.2813020" lon="-0.7997410">
        <ele>339.6</ele>
        <time>2021-10-12T09:46:30Z</time>
      </trkpt>
      <trkpt lat="39.2809990" lon="-0.8000190">
        <ele>343.1</ele>
        <time>2021-10-12T09:46:47Z</time>
      </trkpt>
      <trkpt lat="39.2808060" lon="-0.7998670">
        <ele>344.3</ele>
        <time>2021-10-12T09:47:00Z</time>
      </trkpt>
      <trkpt lat="39.2804040" lon="-0.8001260">
        <ele>348.4</ele>
        <time>2021-10-12T09:47:22Z</time>
      </trkpt>
      <trkpt lat="39.2799000" lon="-0.7996930">
        <ele>360.0</ele>
        <time>2021-10-12T09:49:08Z</time>
      </trkpt>
      <trkpt lat="39.2793570" lon="-0.7997940">
        <ele>370.1</ele>
        <time>2021-10-12T09:49:44Z</time>
      </trkpt>
      <trkpt lat="39.2788440" lon="-0.7996260">
        <ele>376.9</ele>
        <time>2021-10-12T09:50:21Z</time>
      </trkpt>
      <trkpt lat="39.2782890" lon="-0.8012960">
        <ele>393.4</ele>
        <time>2021-10-12T09:55:18Z</time>
      </trkpt>
      <trkpt lat="39.2776830" lon="-0.8011020">
        <ele>373.4</ele>
        <time>2021-10-12T09:55:36Z</time>
      </trkpt>
      <trkpt lat="39.2775030" lon="-0.8011870">
        <ele>377.5</ele>
        <time>2021-10-12T09:55:44Z</time>
      </trkpt>
      <trkpt lat="39.2771770" lon="-0.8009300">
        <ele>377.4</ele>
        <time>2021-10-12T09:55:57Z</time>
      </trkpt>
      <trkpt lat="39.2765850" lon="-0.7995330">
        <ele>358.2</ele>
        <time>2021-10-12T09:56:41Z</time>
      </trkpt>
      <trkpt lat="39.2757560" lon="-0.7994120">
        <ele>380.1</ele>
        <time>2021-10-12T09:57:20Z</time>
      </trkpt>
      <trkpt lat="39.2748030" lon="-0.7997160">
        <ele>403.7</ele>
        <time>2021-10-12T09:58:06Z</time>
      </trkpt>
      <trkpt lat="39.2741500" lon="-0.7994110">
        <ele>398.5</ele>
        <time>2021-10-12T09:58:46Z</time>
      </trkpt>
      <trkpt lat="39.2736500" lon="-0.7994780">
        <ele>405.5</ele>
        <time>2021-10-12T10:02:04Z</time>
      </trkpt>
      <trkpt lat="39.2732490" lon="-0.7997500">
        <ele>404.9</ele>
        <time>2021-10-12T10:02:14Z</time>
      </trkpt>
      <trkpt lat="39.2727380" lon="-0.8006720">
        <ele>384.0</ele>
        <time>2021-10-12T10:02:33Z</time>
      </trkpt>
      <trkpt lat="39.2723910" lon="-0.8009570">
        <ele>370.7</ele>
        <time>2021-10-12T10:02:44Z</time>
      </trkpt>
      <trkpt lat="39.2713540" lon="-0.8007050">
        <ele>344.1</ele>
        <time>2021-10-12T10:03:07Z</time>
      </trkpt>
      <trkpt lat="39.2710590" lon="-0.8009800">
        <ele>333.0</ele>
        <time>2021-10-12T10:03:15Z</time>
      </trkpt>
      <trkpt lat="39.2702880" lon="-0.8012650">
        <ele>323.5</ele>
        <time>2021-10-12T10:03:31Z</time>
      </trkpt>
      <trkpt lat="39.2694450" lon="-0.8013320">
        <ele>326.1</ele>
        <time>2021-10-12T10:03:51Z</time>
      </trkpt>
      <trkpt lat="39.2702340" lon="-0.8021840">
        <ele>298.9</ele>
        <time>2021-10-12T10:04:14Z</time>
      </trkpt>
      <trkpt lat="39.2705070" lon="-0.8022470">
        <ele>297.5</ele>
        <time>2021-10-12T10:04:25Z</time>
      </trkpt>
      <trkpt lat="39.2705620" lon="-0.8026610">
        <ele>286.3</ele>
        <time>2021-10-12T10:04:39Z</time>
      </trkpt>
      <trkpt lat="39.2709150" lon="-0.8022530">
        <ele>301.9</ele>
        <time>2021-10-12T10:04:56Z</time>
      </trkpt>
      <trkpt lat="39.2712730" lon="-0.8035080">
        <ele>279.3</ele>
        <time>2021-10-12T10:08:54Z</time>
      </trkpt>
      <trkpt lat="39.2716010" lon="-0.8036130">
        <ele>277.9</ele>
        <time>2021-10-12T10:09:03Z</time>
      </trkpt>
      <trkpt lat="39.2718660" lon="-0.8039150">
        <ele>276.4</ele>
        <time>2021-10-12T10:09:12Z</time>
      </trkpt>
      <trkpt lat="39.2717190" lon="-0.8044780">
        <ele>274.5</ele>
        <time>2021-10-12T10:09:26Z</time>
      </trkpt>
      <trkpt lat="39.2720280" lon="-0.8051230">
        <ele>272.0</ele>
        <time>2021-10-12T10:09:49Z</time>
      </trkpt>
      <trkpt lat="39.2720140" lon="-0.8076420">
        <ele>263.9</ele>
        <time>2021-10-12T10:10:45Z</time>
      </trkpt>
      <trkpt lat="39.2730140" lon="-0.8079890">
        <ele>259.5</ele>
        <time>2021-10-12T10:11:07Z</time>
      </trkpt>
      <trkpt lat="39.2733330" lon="-0.8083680">
        <ele>257.7</ele>
        <time>2021-10-12T10:11:20Z</time>
      </trkpt>
      <trkpt lat="39.2733070" lon="-0.8084890">
        <ele>257.3</ele>
        <time>2021-10-12T10:11:23Z</time>
      </trkpt>
      <trkpt lat="39.2729840" lon="-0.8085620">
        <ele>255.9</ele>
        <time>2021-10-12T10:11:30Z</time>
      </trkpt>
      <trkpt lat="39.2727600" lon="-0.8082840">
        <ele>254.6</ele>
        <time>2021-10-12T10:11:38Z</time>
      </trkpt>
      <trkpt lat="39.2725630" lon="-0.8084120">
        <ele>253.7</ele>
        <time>2021-10-12T10:11:45Z</time>
      </trkpt>
      <trkpt lat="39.2728330" lon="-0.8091710">
        <ele>251.0</ele>
        <time>2021-10-12T10:12:06Z</time>
      </trkpt>
      <trkpt lat="39.2724840" lon="-0.8092500">
        <ele>249.5</ele>
        <time>2021-10-12T10:15:18Z</time>
      </trkpt>
      <trkpt lat="39.2723320" lon="-0.8095860">
        <ele>248.2</ele>
        <time>2021-10-12T10:15:30Z</time>
      </trkpt>
      <trkpt lat="39.2730350" lon="-0.8096970">
        <ele>245.2</ele>
        <time>2021-10-12T10:16:02Z</time>
      </trkpt>
      <trkpt lat="39.2732790" lon="-0.8098770">
        <ele>244.1</ele>
        <time>2021-10-12T10:16:09Z</time>
      </trkpt>
      <trkpt lat="39.2728160" lon="-0.8103040">
        <ele>244.9</ele>
        <time>2021-10-12T10:16:35Z</time>
      </trkpt>
      <trkpt lat="39.2728360" lon="-0.8108850">
        <ele>250.1</ele>
        <time>2021-10-12T10:16:59Z</time>
      </trkpt>
      <trkpt lat="39.2726270" lon="-0.8113380">
        <ele>251.4</ele>
        <time>2021-10-12T10:17:18Z</time>
      </trkpt>
      <trkpt lat="39.2731460" lon="-0.8116770">
        <ele>238.4</ele>
        <time>2021-10-12T10:17:36Z</time>
      </trkpt>
      <trkpt lat="39.2735280" lon="-0.8122300">
        <ele>228.9</ele>
        <time>2021-10-12T10:17:46Z</time>
      </trkpt>
      <trkpt lat="39.2737140" lon="-0.8130930">
        <ele>223.4</ele>
        <time>2021-10-12T10:18:05Z</time>
      </trkpt>
      <trkpt lat="39.2744050" lon="-0.8142170">
        <ele>213.0</ele>
        <time>2021-10-12T10:18:32Z</time>
      </trkpt>
      <trkpt lat="39.2746850" lon="-0.8155380">
        <ele>205.5</ele>
        <time>2021-10-12T10:18:48Z</time>
      </trkpt>
      <trkpt lat="39.2743710" lon="-0.8166760">
        <ele>207.7</ele>
        <time>2021-10-12T10:19:07Z</time>
      </trkpt>
      <trkpt lat="39.2744850" lon="-0.8175100">
        <ele>216.9</ele>
        <time>2021-10-12T10:19:30Z</time>
      </trkpt>
      <trkpt lat="39.2740100" lon="-0.8183720">
        <ele>230.3</ele>
        <time>2021-10-12T10:20:13Z</time>
      </trkpt>
      <trkpt lat="39.2745130" lon="-0.8184250">
        <ele>241.7</ele>
        <time>2021-10-12T10:23:54Z</time>
      </trkpt>
      <trkpt lat="39.2746590" lon="-0.8182180">
        <ele>246.0</ele>
        <time>2021-10-12T10:24:38Z</time>
      </trkpt>
      <trkpt lat="39.2747420" lon="-0.8185050">
        <ele>250.7</ele>
        <time>2021-10-12T10:24:51Z</time>
      </trkpt>
      <trkpt lat="39.2746100" lon="-0.8189780">
        <ele>257.9</ele>
        <time>2021-10-12T10:25:12Z</time>
      </trkpt>
      <trkpt lat="39.2749920" lon="-0.8199530">
        <ele>255.3</ele>
        <time>2021-10-12T10:25:55Z</time>
      </trkpt>
      <trkpt lat="39.2755630" lon="-0.8207330">
        <ele>259.3</ele>
        <time>2021-10-12T10:26:22Z</time>
      </trkpt>
      <trkpt lat="39.2751140" lon="-0.8214290">
        <ele>265.9</ele>
        <time>2021-10-12T10:26:47Z</time>
      </trkpt>
      <trkpt lat="39.2747890" lon="-0.8215490">
        <ele>266.9</ele>
        <time>2021-10-12T10:27:01Z</time>
      </trkpt>
      <trkpt lat="39.2746460" lon="-0.8224670">
        <ele>272.8</ele>
        <time>2021-10-12T10:27:21Z</time>
      </trkpt>
      <trkpt lat="39.2742110" lon="-0.8225120">
        <ele>274.9</ele>
        <time>2021-10-12T10:27:37Z</time>
      </trkpt>
      <trkpt lat="39.2739740" lon="-0.8227530">
        <ele>274.7</ele>
        <time>2021-10-12T10:27:47Z</time>
      </trkpt>
      <trkpt lat="39.2741540" lon="-0.8237650">
        <ele>275.0</ele>
        <time>2021-10-12T10:28:08Z</time>
      </trkpt>
      <trkpt lat="39.2738060" lon="-0.8241520">
        <ele>280.7</ele>
        <time>2021-10-12T10:28:20Z</time>
      </trkpt>
      <trkpt lat="39.2737680" lon="-0.8246300">
        <ele>284.6</ele>
        <time>2021-10-12T10:28:33Z</time>
      </trkpt>
      <trkpt lat="39.2746440" lon="-0.8256170">
        <ele>279.7</ele>
        <time>2021-10-12T10:29:04Z</time>
      </trkpt>
      <trkpt lat="39.2747620" lon="-0.8266360">
        <ele>286.0</ele>
        <time>2021-10-12T10:29:33Z</time>
      </trkpt>
      <trkpt lat="39.2746780" lon="-0.8271930">
        <ele>283.3</ele>
        <time>2021-10-12T10:29:52Z</time>
      </trkpt>
      <trkpt lat="39.2757390" lon="-0.8281360">
        <ele>275.4</ele>
        <time>2021-10-12T10:30:13Z</time>
      </trkpt>
      <trkpt lat="39.2758980" lon="-0.8286520">
        <ele>277.4</ele>
        <time>2021-10-12T10:30:23Z</time>
      </trkpt>
      <trkpt lat="39.2764870" lon="-0.8288300">
        <ele>278.2</ele>
        <time>2021-10-12T10:30:37Z</time>
      </trkpt>
      <trkpt lat="39.2761790" lon="-0.8299450">
        <ele>282.7</ele>
        <time>2021-10-12T10:31:00Z</time>
      </trkpt>
      <trkpt lat="39.2761530" lon="-0.8307430">
        <ele>286.3</ele>
        <time>2021-10-12T10:31:20Z</time>
      </trkpt>
      <trkpt lat="39.2764200" lon="-0.8326160">
        <ele>290.3</ele>
        <time>2021-10-12T10:31:59Z</time>
      </trkpt>
      <trkpt lat="39.2770880" lon="-0.8336420">
        <ele>293.6</ele>
        <time>2021-10-12T10:32:26Z</time>
      </trkpt>
      <trkpt lat="39.2775830" lon="-0.8340730">
        <ele>296.2</ele>
        <time>2021-10-12T10:32:44Z</time>
      </trkpt>
      <trkpt lat="39.2785470" lon="-0.8337080">
        <ele>296.8</ele>
        <time>2021-10-12T10:33:14Z</time>
      </trkpt>
      <trkpt lat="39.2792280" lon="-0.8324960">
        <ele>302.8</ele>
        <time>2021-10-12T10:33:56Z</time>
      </trkpt>
      <trkpt lat="39.2794960" lon="-0.8327320">
        <ele>306.3</ele>
        <time>2021-10-12T10:34:09Z</time>
      </trkpt>
      <trkpt lat="39.2803530" lon="-0.8322100">
        <ele>314.4</ele>
        <time>2021-10-12T10:34:47Z</time>
      </trkpt>
      <trkpt lat="39.2806740" lon="-0.8321980">
        <ele>318.0</ele>
        <time>2021-10-12T10:35:01Z</time>
      </trkpt>
      <trkpt lat="39.2810980" lon="-0.8318340">
        <ele>323.1</ele>
        <time>2021-10-12T10:35:22Z</time>
      </trkpt>
      <trkpt lat="39.2820760" lon="-0.8303040">
        <ele>338.3</ele>
        <time>2021-10-12T10:36:30Z</time>
      </trkpt>
      <trkpt lat="39.2823090" lon="-0.8293210">
        <ele>348.4</ele>
        <time>2021-10-12T10:37:11Z</time>
      </trkpt>
      <trkpt lat="39.2824530" lon="-0.8292350">
        <ele>349.6</ele>
        <time>2021-10-12T10:37:18Z</time>
      </trkpt>
      <trkpt lat="39.2827860" lon="-0.8293340">
        <ele>352.9</ele>
        <time>2021-10-12T10:37:33Z</time>
      </trkpt>
      <trkpt lat="39.2834420" lon="-0.8288350">
        <ele>358.0</ele>
        <time>2021-10-12T10:38:10Z</time>
      </trkpt>
      <trkpt lat="39.2835150" lon="-0.8279160">
        <ele>357.6</ele>
        <time>2021-10-12T10:38:42Z</time>
      </trkpt>
      <trkpt lat="39.2833470" lon="-0.8268730">
        <ele>351.1</ele>
        <time>2021-10-12T10:39:02Z</time>
      </trkpt>
      <trkpt lat="39.2836420" lon="-0.8264690">
        <ele>348.0</ele>
        <time>2021-10-12T10:39:12Z</time>
      </trkpt>
      <trkpt lat="39.2837250" lon="-0.8260220">
        <ele>349.2</ele>
        <time>2021-10-12T10:39:22Z</time>
      </trkpt>
      <trkpt lat="39.2835750" lon="-0.8249460">
        <ele>347.0</ele>
        <time>2021-10-12T10:39:39Z</time>
      </trkpt>
      <trkpt lat="39.2838030" lon="-0.8236960">
        <ele>339.1</ele>
        <time>2021-10-12T10:39:55Z</time>
      </trkpt>
      <trkpt lat="39.2836890" lon="-0.8234500">
        <ele>336.8</ele>
        <time>2021-10-12T10:40:00Z</time>
      </trkpt>
      <trkpt lat="39.2841360" lon="-0.8231350">
        <ele>333.8</ele>
        <time>2021-10-12T10:40:12Z</time>
      </trkpt>
      <trkpt lat="39.2845030" lon="-0.8225920">
        <ele>332.0</ele>
        <time>2021-10-12T10:40:22Z</time>
      </trkpt>
      <trkpt lat="39.2852190" lon="-0.8208460">
        <ele>332.4</ele>
        <time>2021-10-12T10:40:45Z</time>
      </trkpt>
      <trkpt lat="39.2856830" lon="-0.8192880">
        <ele>347.1</ele>
        <time>2021-10-12T10:41:22Z</time>
      </trkpt>
      <trkpt lat="39.2858810" lon="-0.8178860">
        <ele>350.5</ele>
        <time>2021-10-12T10:41:59Z</time>
      </trkpt>
      <trkpt lat="39.2861830" lon="-0.8171210">
        <ele>357.6</ele>
        <time>2021-10-12T10:42:29Z</time>
      </trkpt>
      <trkpt lat="39.2862330" lon="-0.8164240">
        <ele>363.2</ele>
        <time>2021-10-12T10:42:53Z</time>
      </trkpt>
      <trkpt lat="39.2868240" lon="-0.8148070">
        <ele>376.7</ele>
        <time>2021-10-12T10:43:54Z</time>
      </trkpt>
      <trkpt lat="39.2869710" lon="-0.8146300">
        <ele>377.8</ele>
        <time>2021-10-12T10:44:02Z</time>
      </trkpt>
      <trkpt lat="39.2872180" lon="-0.8147480">
        <ele>378.6</ele>
        <time>2021-10-12T10:44:11Z</time>
      </trkpt>
      <trkpt lat="39.2875750" lon="-0.8155950">
        <ele>384.3</ele>
        <time>2021-10-12T10:44:41Z</time>
      </trkpt>
      <trkpt lat="39.2880360" lon="-0.8152370">
        <ele>392.2</ele>
        <time>2021-10-12T10:45:00Z</time>
      </trkpt>
      <trkpt lat="39.2884940" lon="-0.8151180">
        <ele>400.3</ele>
        <time>2021-10-12T10:45:17Z</time>
      </trkpt>
      <trkpt lat="39.2884210" lon="-0.8143510">
        <ele>410.4</ele>
        <time>2021-10-12T10:45:40Z</time>
      </trkpt>
      <trkpt lat="39.2885470" lon="-0.8140520">
        <ele>412.9</ele>
        <time>2021-10-12T10:45:49Z</time>
      </trkpt>
      <trkpt lat="39.2890770" lon="-0.8138770">
        <ele>417.5</ele>
        <time>2021-10-12T10:46:06Z</time>
      </trkpt>
      <trkpt lat="39.2893130" lon="-0.8140630">
        <ele>420.4</ele>
        <time>2021-10-12T10:46:13Z</time>
      </trkpt>
      <trkpt lat="39.2889960" lon="-0.8137540">
        <ele>422.1</ele>
        <time>2021-10-12T10:46:32Z</time>
      </trkpt>
      <trkpt lat="39.2882050" lon="-0.8141100">
        <ele>424.9</ele>
        <time>2021-10-12T10:47:10Z</time>
      </trkpt>
      <trkpt lat="39.2879370" lon="-0.8135060">
        <ele>425.5</ele>
        <time>2021-10-12T10:47:32Z</time>
      </trkpt>
      <trkpt lat="39.2877930" lon="-0.8126670">
        <ele>429.2</ele>
        <time>2021-10-12T10:47:57Z</time>
      </trkpt>
      <trkpt lat="39.2873250" lon="-0.8128280">
        <ele>430.2</ele>
        <time>2021-10-12T10:48:16Z</time>
      </trkpt>
      <trkpt lat="39.2868960" lon="-0.8124690">
        <ele>425.9</ele>
        <time>2021-10-12T10:48:33Z</time>
      </trkpt>
      <trkpt lat="39.2864590" lon="-0.8128630">
        <ele>421.1</ele>
        <time>2021-10-12T10:48:45Z</time>
      </trkpt>
      <trkpt lat="39.2859190" lon="-0.8126570">
        <ele>416.9</ele>
        <time>2021-10-12T10:51:10Z</time>
      </trkpt>
      <trkpt lat="39.2858990" lon="-0.8121620">
        <ele>413.6</ele>
        <time>2021-10-12T10:51:19Z</time>
      </trkpt>
      <trkpt lat="39.2861460" lon="-0.8111990">
        <ele>400.0</ele>
        <time>2021-10-12T10:51:36Z</time>
      </trkpt>
      <trkpt lat="39.2865090" lon="-0.8109380">
        <ele>392.8</ele>
        <time>2021-10-12T10:51:46Z</time>
      </trkpt>
      <trkpt lat="39.2866310" lon="-0.8105650">
        <ele>390.4</ele>
        <time>2021-10-12T10:51:53Z</time>
      </trkpt>
      <trkpt lat="39.2871510" lon="-0.8102900">
        <ele>388.8</ele>
        <time>2021-10-12T10:52:04Z</time>
      </trkpt>
      <trkpt lat="39.2872730" lon="-0.8100230">
        <ele>386.7</ele>
        <time>2021-10-12T10:52:09Z</time>
      </trkpt>
      <trkpt lat="39.2879280" lon="-0.8106160">
        <ele>380.8</ele>
        <time>2021-10-12T10:52:28Z</time>
      </trkpt>
      <trkpt lat="39.2874800" lon="-0.8092170">
        <ele>361.4</ele>
        <time>2021-10-12T10:52:56Z</time>
      </trkpt>
      <trkpt lat="39.2875970" lon="-0.8084460">
        <ele>351.3</ele>
        <time>2021-10-12T10:53:10Z</time>
      </trkpt>
      <trkpt lat="39.2878250" lon="-0.8079660">
        <ele>346.9</ele>
        <time>2021-10-12T10:53:19Z</time>
      </trkpt>
      <trkpt lat="39.2878200" lon="-0.8070400">
        <ele>341.9</ele>
        <time>2021-10-12T10:53:30Z</time>
      </trkpt>
      <trkpt lat="39.2876340" lon="-0.8066950">
        <ele>338.1</ele>
        <time>2021-10-12T10:53:37Z</time>
      </trkpt>
      <trkpt lat="39.2878030" lon="-0.8057140">
        <ele>328.6</ele>
        <time>2021-10-12T10:53:58Z</time>
      </trkpt>
      <trkpt lat="39.2879440" lon="-0.8053420">
        <ele>324.0</ele>
        <time>2021-10-12T10:54:09Z</time>
      </trkpt>
      <trkpt lat="39.2890010" lon="-0.8050570">
        <ele>328.5</ele>
        <time>2021-10-12T10:58:37Z</time>
      </trkpt>
      <trkpt lat="39.2891510" lon="-0.8038160">
        <ele>329.8</ele>
        <time>2021-10-12T10:59:23Z</time>
      </trkpt>
      <trkpt lat="39.2896850" lon="-0.8030180">
        <ele>333.2</ele>
        <time>2021-10-12T10:59:58Z</time>
      </trkpt>
      <trkpt lat="39.2898080" lon="-0.8024520">
        <ele>334.5</ele>
        <time>2021-10-12T11:00:17Z</time>
      </trkpt>
      <trkpt lat="39.2897310" lon="-0.8021710">
        <ele>335.6</ele>
        <time>2021-10-12T11:00:29Z</time>
      </trkpt>
      <trkpt lat="39.2892650" lon="-0.8022160">
        <ele>344.6</ele>
        <time>2021-10-12T11:00:56Z</time>
      </trkpt>
      <trkpt lat="39.2891170" lon="-0.8019320">
        <ele>349.4</ele>
        <time>2021-10-12T11:01:11Z</time>
      </trkpt>
      <trkpt lat="39.2887440" lon="-0.8003760">
        <ele>365.0</ele>
        <time>2021-10-12T11:02:25Z</time>
      </trkpt>
      <trkpt lat="39.2889910" lon="-0.8001160">
        <ele>360.1</ele>
        <time>2021-10-12T11:05:58Z</time>
      </trkpt>
    </trkseg>
  </trk>
</gpx>
